<?xml version="1.0" encoding="UTF-8" standalone="no" ?>
<gpx xmlns="http://www.topografix.com/GPX/1/1" xmlns:xsi="http://www.w3.org/2001/XMLSchema-instance" xsi:schemaLocation="http://www.topografix.com/GPX/1/1 http://www.topografix.com/GPX/1/1/gpx.xsd" version="1.1" creator="VisuGPX - https://www.visugpx.com">
  <metadata>
    <name>2020-01-11-15-15-51 on AllTrails</name>
    <desc><![CDATA[très bonne sortie du club vsm gr 4 vtt avec un terrain bien gras temps idéal pas trop froid
]]></desc>
  </metadata>
  <trk>
    <name><![CDATA[2020-01-11-15-15-51 on AllTrails]]></name>
    <trkseg>
      <trkpt lat="47.52762" lon="-1.41633">
        <ele>37.3</ele>
        <time>2020-01-11T15:15:51Z</time>
      </trkpt>
      <trkpt lat="47.5276" lon="-1.41632">
        <ele>37</ele>
        <time>2020-01-11T15:16:09Z</time>
      </trkpt>
      <trkpt lat="47.52756" lon="-1.41634">
        <ele>36.6</ele>
        <time>2020-01-11T15:16:11Z</time>
      </trkpt>
      <trkpt lat="47.52742" lon="-1.4164">
        <ele>-1</ele>
        <time>2020-01-11T15:16:17Z</time>
      </trkpt>
      <trkpt lat="47.52733" lon="-1.41643">
        <ele>-3</ele>
        <time>2020-01-11T15:16:33Z</time>
      </trkpt>
      <trkpt lat="47.52723" lon="-1.41652">
        <ele>-3</ele>
        <time>2020-01-11T15:16:38Z</time>
      </trkpt>
      <trkpt lat="47.52706" lon="-1.41661">
        <ele>-4</ele>
        <time>2020-01-11T15:16:43Z</time>
      </trkpt>
      <trkpt lat="47.52702" lon="-1.41663">
        <ele>-4</ele>
        <time>2020-01-11T15:16:44Z</time>
      </trkpt>
      <trkpt lat="47.52691" lon="-1.41675">
        <ele>-5</ele>
        <time>2020-01-11T15:16:48Z</time>
      </trkpt>
      <trkpt lat="47.52689" lon="-1.41683">
        <ele>-6</ele>
        <time>2020-01-11T15:16:50Z</time>
      </trkpt>
      <trkpt lat="47.5269" lon="-1.41703">
        <ele>-6</ele>
        <time>2020-01-11T15:16:54Z</time>
      </trkpt>
      <trkpt lat="47.52695" lon="-1.41737">
        <ele>-6</ele>
        <time>2020-01-11T15:17:00Z</time>
      </trkpt>
      <trkpt lat="47.52696" lon="-1.41742">
        <ele>-6</ele>
        <time>2020-01-11T15:17:01Z</time>
      </trkpt>
      <trkpt lat="47.52702" lon="-1.41759">
        <ele>-6</ele>
        <time>2020-01-11T15:17:06Z</time>
      </trkpt>
      <trkpt lat="47.52706" lon="-1.4177">
        <ele>-6</ele>
        <time>2020-01-11T15:17:11Z</time>
      </trkpt>
      <trkpt lat="47.52713" lon="-1.41793">
        <ele>-6</ele>
        <time>2020-01-11T15:17:16Z</time>
      </trkpt>
      <trkpt lat="47.52723" lon="-1.41821">
        <ele>-6</ele>
        <time>2020-01-11T15:17:22Z</time>
      </trkpt>
      <trkpt lat="47.52731" lon="-1.41847">
        <ele>-6</ele>
        <time>2020-01-11T15:17:28Z</time>
      </trkpt>
      <trkpt lat="47.52741" lon="-1.41872">
        <ele>-6</ele>
        <time>2020-01-11T15:17:34Z</time>
      </trkpt>
      <trkpt lat="47.52755" lon="-1.41906">
        <ele>-6</ele>
        <time>2020-01-11T15:17:40Z</time>
      </trkpt>
      <trkpt lat="47.52771" lon="-1.41942">
        <ele>-6</ele>
        <time>2020-01-11T15:17:46Z</time>
      </trkpt>
      <trkpt lat="47.52788" lon="-1.41972">
        <ele>-6</ele>
        <time>2020-01-11T15:17:53Z</time>
      </trkpt>
      <trkpt lat="47.52806" lon="-1.41988">
        <ele>-6</ele>
        <time>2020-01-11T15:17:58Z</time>
      </trkpt>
      <trkpt lat="47.5283" lon="-1.41995">
        <ele>-6</ele>
        <time>2020-01-11T15:18:04Z</time>
      </trkpt>
      <trkpt lat="47.52837" lon="-1.42001">
        <ele>-6</ele>
        <time>2020-01-11T15:18:06Z</time>
      </trkpt>
      <trkpt lat="47.52843" lon="-1.42008">
        <ele>-6</ele>
        <time>2020-01-11T15:18:08Z</time>
      </trkpt>
      <trkpt lat="47.52851" lon="-1.42025">
        <ele>-6</ele>
        <time>2020-01-11T15:18:12Z</time>
      </trkpt>
      <trkpt lat="47.5285" lon="-1.4205">
        <ele>-6</ele>
        <time>2020-01-11T15:18:16Z</time>
      </trkpt>
      <trkpt lat="47.52843" lon="-1.42063">
        <ele>-6</ele>
        <time>2020-01-11T15:18:19Z</time>
      </trkpt>
      <trkpt lat="47.52839" lon="-1.42066">
        <ele>-6</ele>
        <time>2020-01-11T15:18:20Z</time>
      </trkpt>
      <trkpt lat="47.52825" lon="-1.42083">
        <ele>-6</ele>
        <time>2020-01-11T15:18:25Z</time>
      </trkpt>
      <trkpt lat="47.52815" lon="-1.42107">
        <ele>-5</ele>
        <time>2020-01-11T15:18:30Z</time>
      </trkpt>
      <trkpt lat="47.52799" lon="-1.42145">
        <ele>-6</ele>
        <time>2020-01-11T15:18:37Z</time>
      </trkpt>
      <trkpt lat="47.52788" lon="-1.42176">
        <ele>-6</ele>
        <time>2020-01-11T15:18:42Z</time>
      </trkpt>
      <trkpt lat="47.52783" lon="-1.42187">
        <ele>-6</ele>
        <time>2020-01-11T15:18:44Z</time>
      </trkpt>
      <trkpt lat="47.52757" lon="-1.42225">
        <ele>-6</ele>
        <time>2020-01-11T15:18:52Z</time>
      </trkpt>
      <trkpt lat="47.52736" lon="-1.4226">
        <ele>-6</ele>
        <time>2020-01-11T15:18:59Z</time>
      </trkpt>
      <trkpt lat="47.52719" lon="-1.42306">
        <ele>-5</ele>
        <time>2020-01-11T15:19:06Z</time>
      </trkpt>
      <trkpt lat="47.52703" lon="-1.42349">
        <ele>-5</ele>
        <time>2020-01-11T15:19:14Z</time>
      </trkpt>
      <trkpt lat="47.52704" lon="-1.42379">
        <ele>-5</ele>
        <time>2020-01-11T15:19:19Z</time>
      </trkpt>
      <trkpt lat="47.52709" lon="-1.42416">
        <ele>-5</ele>
        <time>2020-01-11T15:19:25Z</time>
      </trkpt>
      <trkpt lat="47.5271" lon="-1.42461">
        <ele>-5</ele>
        <time>2020-01-11T15:19:32Z</time>
      </trkpt>
      <trkpt lat="47.52709" lon="-1.42511">
        <ele>-5</ele>
        <time>2020-01-11T15:19:40Z</time>
      </trkpt>
      <trkpt lat="47.52708" lon="-1.42555">
        <ele>-5</ele>
        <time>2020-01-11T15:19:47Z</time>
      </trkpt>
      <trkpt lat="47.52709" lon="-1.42611">
        <ele>-5</ele>
        <time>2020-01-11T15:19:56Z</time>
      </trkpt>
      <trkpt lat="47.52708" lon="-1.42655">
        <ele>-5</ele>
        <time>2020-01-11T15:20:03Z</time>
      </trkpt>
      <trkpt lat="47.52706" lon="-1.42699">
        <ele>-5</ele>
        <time>2020-01-11T15:20:10Z</time>
      </trkpt>
      <trkpt lat="47.527" lon="-1.42726">
        <ele>-5</ele>
        <time>2020-01-11T15:20:15Z</time>
      </trkpt>
      <trkpt lat="47.52687" lon="-1.42739">
        <ele>-5</ele>
        <time>2020-01-11T15:20:19Z</time>
      </trkpt>
      <trkpt lat="47.52683" lon="-1.42739">
        <ele>-5</ele>
        <time>2020-01-11T15:20:20Z</time>
      </trkpt>
      <trkpt lat="47.5267" lon="-1.42738">
        <ele>-5</ele>
        <time>2020-01-11T15:20:23Z</time>
      </trkpt>
      <trkpt lat="47.52666" lon="-1.4274">
        <ele>-5</ele>
        <time>2020-01-11T15:20:24Z</time>
      </trkpt>
      <trkpt lat="47.52648" lon="-1.42754">
        <ele>-5</ele>
        <time>2020-01-11T15:20:29Z</time>
      </trkpt>
      <trkpt lat="47.52643" lon="-1.42762">
        <ele>-5</ele>
        <time>2020-01-11T15:20:31Z</time>
      </trkpt>
      <trkpt lat="47.52638" lon="-1.42771">
        <ele>-5</ele>
        <time>2020-01-11T15:20:34Z</time>
      </trkpt>
      <trkpt lat="47.52629" lon="-1.42798">
        <ele>-5</ele>
        <time>2020-01-11T15:20:40Z</time>
      </trkpt>
      <trkpt lat="47.52622" lon="-1.4282">
        <ele>-5</ele>
        <time>2020-01-11T15:20:45Z</time>
      </trkpt>
      <trkpt lat="47.5261" lon="-1.42837">
        <ele>-5</ele>
        <time>2020-01-11T15:20:50Z</time>
      </trkpt>
      <trkpt lat="47.52601" lon="-1.42857">
        <ele>-5</ele>
        <time>2020-01-11T15:20:55Z</time>
      </trkpt>
      <trkpt lat="47.5259" lon="-1.42886">
        <ele>-5</ele>
        <time>2020-01-11T15:21:02Z</time>
      </trkpt>
      <trkpt lat="47.52581" lon="-1.42916">
        <ele>-5</ele>
        <time>2020-01-11T15:21:08Z</time>
      </trkpt>
      <trkpt lat="47.52576" lon="-1.42943">
        <ele>-5</ele>
        <time>2020-01-11T15:21:13Z</time>
      </trkpt>
      <trkpt lat="47.52576" lon="-1.42955">
        <ele>-5</ele>
        <time>2020-01-11T15:21:15Z</time>
      </trkpt>
      <trkpt lat="47.52577" lon="-1.42974">
        <ele>-5</ele>
        <time>2020-01-11T15:21:18Z</time>
      </trkpt>
      <trkpt lat="47.52582" lon="-1.43006">
        <ele>-5</ele>
        <time>2020-01-11T15:21:24Z</time>
      </trkpt>
      <trkpt lat="47.52587" lon="-1.43037">
        <ele>-5</ele>
        <time>2020-01-11T15:21:30Z</time>
      </trkpt>
      <trkpt lat="47.52593" lon="-1.4307">
        <ele>-5</ele>
        <time>2020-01-11T15:21:36Z</time>
      </trkpt>
      <trkpt lat="47.52602" lon="-1.43115">
        <ele>-4</ele>
        <time>2020-01-11T15:21:44Z</time>
      </trkpt>
      <trkpt lat="47.52607" lon="-1.43149">
        <ele>-5</ele>
        <time>2020-01-11T15:21:50Z</time>
      </trkpt>
      <trkpt lat="47.52609" lon="-1.43167">
        <ele>-5</ele>
        <time>2020-01-11T15:21:53Z</time>
      </trkpt>
      <trkpt lat="47.52609" lon="-1.43174">
        <ele>-5</ele>
        <time>2020-01-11T15:21:54Z</time>
      </trkpt>
      <trkpt lat="47.52614" lon="-1.43208">
        <ele>-5</ele>
        <time>2020-01-11T15:22:00Z</time>
      </trkpt>
      <trkpt lat="47.52622" lon="-1.43241">
        <ele>-5</ele>
        <time>2020-01-11T15:22:06Z</time>
      </trkpt>
      <trkpt lat="47.52628" lon="-1.43275">
        <ele>-5</ele>
        <time>2020-01-11T15:22:11Z</time>
      </trkpt>
      <trkpt lat="47.52637" lon="-1.43301">
        <ele>-5</ele>
        <time>2020-01-11T15:22:17Z</time>
      </trkpt>
      <trkpt lat="47.52638" lon="-1.43319">
        <ele>-5</ele>
        <time>2020-01-11T15:22:21Z</time>
      </trkpt>
      <trkpt lat="47.52638" lon="-1.43347">
        <ele>-5</ele>
        <time>2020-01-11T15:22:28Z</time>
      </trkpt>
      <trkpt lat="47.52639" lon="-1.43364">
        <ele>-5</ele>
        <time>2020-01-11T15:22:33Z</time>
      </trkpt>
      <trkpt lat="47.52637" lon="-1.43395">
        <ele>-5</ele>
        <time>2020-01-11T15:22:41Z</time>
      </trkpt>
      <trkpt lat="47.52638" lon="-1.43427">
        <ele>-5</ele>
        <time>2020-01-11T15:22:48Z</time>
      </trkpt>
      <trkpt lat="47.52638" lon="-1.43456">
        <ele>-5</ele>
        <time>2020-01-11T15:22:55Z</time>
      </trkpt>
      <trkpt lat="47.52637" lon="-1.43474">
        <ele>-5</ele>
        <time>2020-01-11T15:23:00Z</time>
      </trkpt>
      <trkpt lat="47.5264" lon="-1.43502">
        <ele>-5</ele>
        <time>2020-01-11T15:23:06Z</time>
      </trkpt>
      <trkpt lat="47.52646" lon="-1.43533">
        <ele>-5</ele>
        <time>2020-01-11T15:23:13Z</time>
      </trkpt>
      <trkpt lat="47.52652" lon="-1.43557">
        <ele>-5</ele>
        <time>2020-01-11T15:23:19Z</time>
      </trkpt>
      <trkpt lat="47.52659" lon="-1.43581">
        <ele>-5</ele>
        <time>2020-01-11T15:23:25Z</time>
      </trkpt>
      <trkpt lat="47.52665" lon="-1.43597">
        <ele>-5</ele>
        <time>2020-01-11T15:23:30Z</time>
      </trkpt>
      <trkpt lat="47.52673" lon="-1.43615">
        <ele>-5</ele>
        <time>2020-01-11T15:23:36Z</time>
      </trkpt>
      <trkpt lat="47.52689" lon="-1.43633">
        <ele>-5</ele>
        <time>2020-01-11T15:23:42Z</time>
      </trkpt>
      <trkpt lat="47.52706" lon="-1.43652">
        <ele>-5</ele>
        <time>2020-01-11T15:23:48Z</time>
      </trkpt>
      <trkpt lat="47.52724" lon="-1.43664">
        <ele>-5</ele>
        <time>2020-01-11T15:23:54Z</time>
      </trkpt>
      <trkpt lat="47.52737" lon="-1.43672">
        <ele>-4</ele>
        <time>2020-01-11T15:23:59Z</time>
      </trkpt>
      <trkpt lat="47.52756" lon="-1.43673">
        <ele>-5</ele>
        <time>2020-01-11T15:24:05Z</time>
      </trkpt>
      <trkpt lat="47.52778" lon="-1.43676">
        <ele>-5</ele>
        <time>2020-01-11T15:24:11Z</time>
      </trkpt>
      <trkpt lat="47.52791" lon="-1.43672">
        <ele>-5</ele>
        <time>2020-01-11T15:24:15Z</time>
      </trkpt>
      <trkpt lat="47.52801" lon="-1.43671">
        <ele>-4</ele>
        <time>2020-01-11T15:24:18Z</time>
      </trkpt>
      <trkpt lat="47.52808" lon="-1.43669">
        <ele>-4</ele>
        <time>2020-01-11T15:24:20Z</time>
      </trkpt>
      <trkpt lat="47.52827" lon="-1.43663">
        <ele>-4</ele>
        <time>2020-01-11T15:24:26Z</time>
      </trkpt>
      <trkpt lat="47.52842" lon="-1.43654">
        <ele>-4</ele>
        <time>2020-01-11T15:24:32Z</time>
      </trkpt>
      <trkpt lat="47.52857" lon="-1.43646">
        <ele>-4</ele>
        <time>2020-01-11T15:24:38Z</time>
      </trkpt>
      <trkpt lat="47.52874" lon="-1.43642">
        <ele>-5</ele>
        <time>2020-01-11T15:24:44Z</time>
      </trkpt>
      <trkpt lat="47.52897" lon="-1.43635">
        <ele>-4</ele>
        <time>2020-01-11T15:24:51Z</time>
      </trkpt>
      <trkpt lat="47.52914" lon="-1.43631">
        <ele>-4</ele>
        <time>2020-01-11T15:24:57Z</time>
      </trkpt>
      <trkpt lat="47.52937" lon="-1.43628">
        <ele>-4</ele>
        <time>2020-01-11T15:25:04Z</time>
      </trkpt>
      <trkpt lat="47.52952" lon="-1.43624">
        <ele>-4</ele>
        <time>2020-01-11T15:25:09Z</time>
      </trkpt>
      <trkpt lat="47.52963" lon="-1.43616">
        <ele>-5</ele>
        <time>2020-01-11T15:25:15Z</time>
      </trkpt>
      <trkpt lat="47.52973" lon="-1.436">
        <ele>-4</ele>
        <time>2020-01-11T15:25:22Z</time>
      </trkpt>
      <trkpt lat="47.52979" lon="-1.43582">
        <ele>-4</ele>
        <time>2020-01-11T15:25:27Z</time>
      </trkpt>
      <trkpt lat="47.52992" lon="-1.43561">
        <ele>-4</ele>
        <time>2020-01-11T15:25:31Z</time>
      </trkpt>
      <trkpt lat="47.53004" lon="-1.43547">
        <ele>-5</ele>
        <time>2020-01-11T15:25:35Z</time>
      </trkpt>
      <trkpt lat="47.53016" lon="-1.43537">
        <ele>-4</ele>
        <time>2020-01-11T15:25:40Z</time>
      </trkpt>
      <trkpt lat="47.53021" lon="-1.43531">
        <ele>-3</ele>
        <time>2020-01-11T15:25:43Z</time>
      </trkpt>
      <trkpt lat="47.53027" lon="-1.43525">
        <ele>-3</ele>
        <time>2020-01-11T15:25:45Z</time>
      </trkpt>
      <trkpt lat="47.53042" lon="-1.43506">
        <ele>-3</ele>
        <time>2020-01-11T15:25:52Z</time>
      </trkpt>
      <trkpt lat="47.53057" lon="-1.43485">
        <ele>-3</ele>
        <time>2020-01-11T15:25:59Z</time>
      </trkpt>
      <trkpt lat="47.53065" lon="-1.43473">
        <ele>-3</ele>
        <time>2020-01-11T15:26:04Z</time>
      </trkpt>
      <trkpt lat="47.53066" lon="-1.43471">
        <ele>-2</ele>
        <time>2020-01-11T15:26:05Z</time>
      </trkpt>
      <trkpt lat="47.53069" lon="-1.43468">
        <ele>-2</ele>
        <time>2020-01-11T15:26:07Z</time>
      </trkpt>
      <trkpt lat="47.53072" lon="-1.43467">
        <ele>-1</ele>
        <time>2020-01-11T15:26:09Z</time>
      </trkpt>
      <trkpt lat="47.53074" lon="-1.43468">
        <ele>-1</ele>
        <time>2020-01-11T15:26:10Z</time>
      </trkpt>
      <trkpt lat="47.53083" lon="-1.43472">
        <ele>33</ele>
        <time>2020-01-11T15:26:14Z</time>
      </trkpt>
      <trkpt lat="47.53088" lon="-1.43474">
        <ele>33.2</ele>
        <time>2020-01-11T15:26:16Z</time>
      </trkpt>
      <trkpt lat="47.53103" lon="-1.43471">
        <ele>-1</ele>
        <time>2020-01-11T15:28:05Z</time>
      </trkpt>
      <trkpt lat="47.53105" lon="-1.43473">
        <ele>-1</ele>
        <time>2020-01-11T15:28:06Z</time>
      </trkpt>
      <trkpt lat="47.53115" lon="-1.43493">
        <ele>-1</ele>
        <time>2020-01-11T15:28:13Z</time>
      </trkpt>
      <trkpt lat="47.53123" lon="-1.43511">
        <ele>-1</ele>
        <time>2020-01-11T15:28:19Z</time>
      </trkpt>
      <trkpt lat="47.53129" lon="-1.43544">
        <ele>36.5</ele>
        <time>2020-01-11T15:28:26Z</time>
      </trkpt>
      <trkpt lat="47.53131" lon="-1.43571">
        <ele>38</ele>
        <time>2020-01-11T15:28:31Z</time>
      </trkpt>
      <trkpt lat="47.53131" lon="-1.43594">
        <ele>1</ele>
        <time>2020-01-11T15:28:35Z</time>
      </trkpt>
      <trkpt lat="47.53131" lon="-1.43621">
        <ele>2</ele>
        <time>2020-01-11T15:28:40Z</time>
      </trkpt>
      <trkpt lat="47.53131" lon="-1.43636">
        <ele>3</ele>
        <time>2020-01-11T15:28:43Z</time>
      </trkpt>
      <trkpt lat="47.53132" lon="-1.43644">
        <ele>4</ele>
        <time>2020-01-11T15:28:45Z</time>
      </trkpt>
      <trkpt lat="47.53132" lon="-1.43664">
        <ele>5</ele>
        <time>2020-01-11T15:28:50Z</time>
      </trkpt>
      <trkpt lat="47.53136" lon="-1.43678">
        <ele>5</ele>
        <time>2020-01-11T15:28:55Z</time>
      </trkpt>
      <trkpt lat="47.53145" lon="-1.43677">
        <ele>6</ele>
        <time>2020-01-11T15:28:58Z</time>
      </trkpt>
      <trkpt lat="47.53147" lon="-1.43676">
        <ele>6</ele>
        <time>2020-01-11T15:28:59Z</time>
      </trkpt>
      <trkpt lat="47.53158" lon="-1.43683">
        <ele>6</ele>
        <time>2020-01-11T15:29:03Z</time>
      </trkpt>
      <trkpt lat="47.53164" lon="-1.43705">
        <ele>7</ele>
        <time>2020-01-11T15:29:08Z</time>
      </trkpt>
      <trkpt lat="47.53171" lon="-1.43743">
        <ele>8</ele>
        <time>2020-01-11T15:29:16Z</time>
      </trkpt>
      <trkpt lat="47.53173" lon="-1.43753">
        <ele>8</ele>
        <time>2020-01-11T15:29:18Z</time>
      </trkpt>
      <trkpt lat="47.53177" lon="-1.43771">
        <ele>9</ele>
        <time>2020-01-11T15:29:22Z</time>
      </trkpt>
      <trkpt lat="47.5318" lon="-1.43786">
        <ele>9</ele>
        <time>2020-01-11T15:29:25Z</time>
      </trkpt>
      <trkpt lat="47.53186" lon="-1.43816">
        <ele>10</ele>
        <time>2020-01-11T15:29:31Z</time>
      </trkpt>
      <trkpt lat="47.53189" lon="-1.4383">
        <ele>10</ele>
        <time>2020-01-11T15:29:34Z</time>
      </trkpt>
      <trkpt lat="47.53196" lon="-1.43869">
        <ele>11</ele>
        <time>2020-01-11T15:29:42Z</time>
      </trkpt>
      <trkpt lat="47.53195" lon="-1.43902">
        <ele>12</ele>
        <time>2020-01-11T15:29:48Z</time>
      </trkpt>
      <trkpt lat="47.53196" lon="-1.43955">
        <ele>12</ele>
        <time>2020-01-11T15:29:58Z</time>
      </trkpt>
      <trkpt lat="47.53205" lon="-1.43995">
        <ele>12</ele>
        <time>2020-01-11T15:30:06Z</time>
      </trkpt>
      <trkpt lat="47.53217" lon="-1.44032">
        <ele>13</ele>
        <time>2020-01-11T15:30:14Z</time>
      </trkpt>
      <trkpt lat="47.5322" lon="-1.44041">
        <ele>13</ele>
        <time>2020-01-11T15:30:16Z</time>
      </trkpt>
      <trkpt lat="47.5323" lon="-1.44073">
        <ele>14</ele>
        <time>2020-01-11T15:30:23Z</time>
      </trkpt>
      <trkpt lat="47.53232" lon="-1.44078">
        <ele>14</ele>
        <time>2020-01-11T15:30:24Z</time>
      </trkpt>
      <trkpt lat="47.53246" lon="-1.44125">
        <ele>15</ele>
        <time>2020-01-11T15:30:34Z</time>
      </trkpt>
      <trkpt lat="47.53248" lon="-1.4413">
        <ele>15</ele>
        <time>2020-01-11T15:30:35Z</time>
      </trkpt>
      <trkpt lat="47.53258" lon="-1.44172">
        <ele>16</ele>
        <time>2020-01-11T15:30:43Z</time>
      </trkpt>
      <trkpt lat="47.53268" lon="-1.44211">
        <ele>16</ele>
        <time>2020-01-11T15:30:51Z</time>
      </trkpt>
      <trkpt lat="47.53271" lon="-1.44221">
        <ele>16</ele>
        <time>2020-01-11T15:30:53Z</time>
      </trkpt>
      <trkpt lat="47.53287" lon="-1.44263">
        <ele>17</ele>
        <time>2020-01-11T15:31:01Z</time>
      </trkpt>
      <trkpt lat="47.53304" lon="-1.44294">
        <ele>17</ele>
        <time>2020-01-11T15:31:08Z</time>
      </trkpt>
      <trkpt lat="47.53321" lon="-1.44322">
        <ele>17</ele>
        <time>2020-01-11T15:31:15Z</time>
      </trkpt>
      <trkpt lat="47.53342" lon="-1.44367">
        <ele>17</ele>
        <time>2020-01-11T15:31:24Z</time>
      </trkpt>
      <trkpt lat="47.53346" lon="-1.44376">
        <ele>17</ele>
        <time>2020-01-11T15:31:26Z</time>
      </trkpt>
      <trkpt lat="47.5336" lon="-1.44409">
        <ele>18</ele>
        <time>2020-01-11T15:31:33Z</time>
      </trkpt>
      <trkpt lat="47.53375" lon="-1.44447">
        <ele>18</ele>
        <time>2020-01-11T15:31:41Z</time>
      </trkpt>
      <trkpt lat="47.53378" lon="-1.44456">
        <ele>19</ele>
        <time>2020-01-11T15:31:43Z</time>
      </trkpt>
      <trkpt lat="47.53381" lon="-1.4447">
        <ele>19</ele>
        <time>2020-01-11T15:31:47Z</time>
      </trkpt>
      <trkpt lat="47.53382" lon="-1.44479">
        <ele>20</ele>
        <time>2020-01-11T15:31:50Z</time>
      </trkpt>
      <trkpt lat="47.53381" lon="-1.44487">
        <ele>21</ele>
        <time>2020-01-11T15:32:29Z</time>
      </trkpt>
      <trkpt lat="47.53379" lon="-1.4449">
        <ele>21</ele>
        <time>2020-01-11T15:32:30Z</time>
      </trkpt>
      <trkpt lat="47.53367" lon="-1.445">
        <ele>21</ele>
        <time>2020-01-11T15:32:34Z</time>
      </trkpt>
      <trkpt lat="47.53363" lon="-1.44501">
        <ele>21</ele>
        <time>2020-01-11T15:32:35Z</time>
      </trkpt>
      <trkpt lat="47.53339" lon="-1.44512">
        <ele>19</ele>
        <time>2020-01-11T15:32:40Z</time>
      </trkpt>
      <trkpt lat="47.53316" lon="-1.44527">
        <ele>18</ele>
        <time>2020-01-11T15:32:44Z</time>
      </trkpt>
      <trkpt lat="47.53304" lon="-1.44535">
        <ele>17</ele>
        <time>2020-01-11T15:32:46Z</time>
      </trkpt>
      <trkpt lat="47.53298" lon="-1.44538">
        <ele>17</ele>
        <time>2020-01-11T15:32:47Z</time>
      </trkpt>
      <trkpt lat="47.53292" lon="-1.44541">
        <ele>16</ele>
        <time>2020-01-11T15:32:48Z</time>
      </trkpt>
      <trkpt lat="47.53279" lon="-1.44546">
        <ele>16</ele>
        <time>2020-01-11T15:32:50Z</time>
      </trkpt>
      <trkpt lat="47.53268" lon="-1.44551">
        <ele>15</ele>
        <time>2020-01-11T15:32:52Z</time>
      </trkpt>
      <trkpt lat="47.53258" lon="-1.44555">
        <ele>14</ele>
        <time>2020-01-11T15:32:54Z</time>
      </trkpt>
      <trkpt lat="47.53245" lon="-1.44558">
        <ele>14</ele>
        <time>2020-01-11T15:32:57Z</time>
      </trkpt>
      <trkpt lat="47.53238" lon="-1.4456">
        <ele>13</ele>
        <time>2020-01-11T15:32:59Z</time>
      </trkpt>
      <trkpt lat="47.53233" lon="-1.44561">
        <ele>13</ele>
        <time>2020-01-11T15:33:01Z</time>
      </trkpt>
      <trkpt lat="47.53216" lon="-1.44564">
        <ele>13</ele>
        <time>2020-01-11T15:33:07Z</time>
      </trkpt>
      <trkpt lat="47.532" lon="-1.44568">
        <ele>13</ele>
        <time>2020-01-11T15:33:13Z</time>
      </trkpt>
      <trkpt lat="47.53184" lon="-1.44569">
        <ele>12</ele>
        <time>2020-01-11T15:33:20Z</time>
      </trkpt>
      <trkpt lat="47.53163" lon="-1.44563">
        <ele>12</ele>
        <time>2020-01-11T15:33:27Z</time>
      </trkpt>
      <trkpt lat="47.53142" lon="-1.44555">
        <ele>12</ele>
        <time>2020-01-11T15:33:34Z</time>
      </trkpt>
      <trkpt lat="47.53122" lon="-1.44555">
        <ele>12</ele>
        <time>2020-01-11T15:33:40Z</time>
      </trkpt>
      <trkpt lat="47.53102" lon="-1.44567">
        <ele>12</ele>
        <time>2020-01-11T15:33:46Z</time>
      </trkpt>
      <trkpt lat="47.53082" lon="-1.44585">
        <ele>13</ele>
        <time>2020-01-11T15:33:54Z</time>
      </trkpt>
      <trkpt lat="47.53072" lon="-1.44596">
        <ele>13</ele>
        <time>2020-01-11T15:33:58Z</time>
      </trkpt>
      <trkpt lat="47.53063" lon="-1.44604">
        <ele>13</ele>
        <time>2020-01-11T15:34:02Z</time>
      </trkpt>
      <trkpt lat="47.53041" lon="-1.4462">
        <ele>14</ele>
        <time>2020-01-11T15:34:11Z</time>
      </trkpt>
      <trkpt lat="47.53019" lon="-1.44628">
        <ele>14</ele>
        <time>2020-01-11T15:34:18Z</time>
      </trkpt>
      <trkpt lat="47.52993" lon="-1.44641">
        <ele>13</ele>
        <time>2020-01-11T15:34:26Z</time>
      </trkpt>
      <trkpt lat="47.52981" lon="-1.44648">
        <ele>12</ele>
        <time>2020-01-11T15:34:30Z</time>
      </trkpt>
      <trkpt lat="47.5297" lon="-1.44655">
        <ele>12</ele>
        <time>2020-01-11T15:34:33Z</time>
      </trkpt>
      <trkpt lat="47.52955" lon="-1.44666">
        <ele>12</ele>
        <time>2020-01-11T15:34:39Z</time>
      </trkpt>
      <trkpt lat="47.52945" lon="-1.44675">
        <ele>11</ele>
        <time>2020-01-11T15:34:45Z</time>
      </trkpt>
      <trkpt lat="47.52938" lon="-1.44683">
        <ele>11</ele>
        <time>2020-01-11T15:34:49Z</time>
      </trkpt>
      <trkpt lat="47.52934" lon="-1.44691">
        <ele>11</ele>
        <time>2020-01-11T15:34:52Z</time>
      </trkpt>
      <trkpt lat="47.52931" lon="-1.44702">
        <ele>11</ele>
        <time>2020-01-11T15:34:55Z</time>
      </trkpt>
      <trkpt lat="47.52931" lon="-1.44711">
        <ele>11</ele>
        <time>2020-01-11T15:34:57Z</time>
      </trkpt>
      <trkpt lat="47.52931" lon="-1.44753">
        <ele>11</ele>
        <time>2020-01-11T15:35:06Z</time>
      </trkpt>
      <trkpt lat="47.52924" lon="-1.44779">
        <ele>11</ele>
        <time>2020-01-11T15:35:13Z</time>
      </trkpt>
      <trkpt lat="47.52916" lon="-1.44789">
        <ele>11</ele>
        <time>2020-01-11T15:35:17Z</time>
      </trkpt>
      <trkpt lat="47.52892" lon="-1.44797">
        <ele>10</ele>
        <time>2020-01-11T15:35:23Z</time>
      </trkpt>
      <trkpt lat="47.52887" lon="-1.44799">
        <ele>10</ele>
        <time>2020-01-11T15:35:24Z</time>
      </trkpt>
      <trkpt lat="47.5286" lon="-1.44808">
        <ele>9</ele>
        <time>2020-01-11T15:35:29Z</time>
      </trkpt>
      <trkpt lat="47.52855" lon="-1.44809">
        <ele>8</ele>
        <time>2020-01-11T15:35:30Z</time>
      </trkpt>
      <trkpt lat="47.52844" lon="-1.44813">
        <ele>7</ele>
        <time>2020-01-11T15:35:32Z</time>
      </trkpt>
      <trkpt lat="47.52828" lon="-1.44818">
        <ele>6</ele>
        <time>2020-01-11T15:35:35Z</time>
      </trkpt>
      <trkpt lat="47.52811" lon="-1.44824">
        <ele>5</ele>
        <time>2020-01-11T15:35:38Z</time>
      </trkpt>
      <trkpt lat="47.52805" lon="-1.44826">
        <ele>4</ele>
        <time>2020-01-11T15:35:39Z</time>
      </trkpt>
      <trkpt lat="47.52795" lon="-1.44829">
        <ele>3</ele>
        <time>2020-01-11T15:35:41Z</time>
      </trkpt>
      <trkpt lat="47.52771" lon="-1.44836">
        <ele>2</ele>
        <time>2020-01-11T15:35:46Z</time>
      </trkpt>
      <trkpt lat="47.52767" lon="-1.44838">
        <ele>2</ele>
        <time>2020-01-11T15:35:47Z</time>
      </trkpt>
      <trkpt lat="47.52731" lon="-1.4485">
        <ele>2</ele>
        <time>2020-01-11T15:35:55Z</time>
      </trkpt>
      <trkpt lat="47.52696" lon="-1.44861">
        <ele>2</ele>
        <time>2020-01-11T15:36:03Z</time>
      </trkpt>
      <trkpt lat="47.52663" lon="-1.44872">
        <ele>1</ele>
        <time>2020-01-11T15:36:11Z</time>
      </trkpt>
      <trkpt lat="47.52645" lon="-1.44877">
        <ele>1</ele>
        <time>2020-01-11T15:36:15Z</time>
      </trkpt>
      <trkpt lat="47.52626" lon="-1.44883">
        <ele>1</ele>
        <time>2020-01-11T15:36:19Z</time>
      </trkpt>
      <trkpt lat="47.52611" lon="-1.44888">
        <ele>34</ele>
        <time>2020-01-11T15:36:22Z</time>
      </trkpt>
      <trkpt lat="47.52598" lon="-1.44894">
        <ele>-1</ele>
        <time>2020-01-11T15:36:25Z</time>
      </trkpt>
      <trkpt lat="47.52594" lon="-1.44896">
        <ele>-2</ele>
        <time>2020-01-11T15:36:26Z</time>
      </trkpt>
      <trkpt lat="47.52591" lon="-1.449">
        <ele>-2</ele>
        <time>2020-01-11T15:36:27Z</time>
      </trkpt>
      <trkpt lat="47.52584" lon="-1.4491">
        <ele>-3</ele>
        <time>2020-01-11T15:36:30Z</time>
      </trkpt>
      <trkpt lat="47.52584" lon="-1.4492">
        <ele>-4</ele>
        <time>2020-01-11T15:37:00Z</time>
      </trkpt>
      <trkpt lat="47.52589" lon="-1.44927">
        <ele>-4</ele>
        <time>2020-01-11T15:37:02Z</time>
      </trkpt>
      <trkpt lat="47.52599" lon="-1.4494">
        <ele>-4</ele>
        <time>2020-01-11T15:37:07Z</time>
      </trkpt>
      <trkpt lat="47.52612" lon="-1.44956">
        <ele>-4</ele>
        <time>2020-01-11T15:37:13Z</time>
      </trkpt>
      <trkpt lat="47.52628" lon="-1.44975">
        <ele>-4</ele>
        <time>2020-01-11T15:37:19Z</time>
      </trkpt>
      <trkpt lat="47.5264" lon="-1.44992">
        <ele>-4</ele>
        <time>2020-01-11T15:37:24Z</time>
      </trkpt>
      <trkpt lat="47.52661" lon="-1.45016">
        <ele>-4</ele>
        <time>2020-01-11T15:37:31Z</time>
      </trkpt>
      <trkpt lat="47.52677" lon="-1.45038">
        <ele>-4</ele>
        <time>2020-01-11T15:37:37Z</time>
      </trkpt>
      <trkpt lat="47.52697" lon="-1.45063">
        <ele>-4</ele>
        <time>2020-01-11T15:37:44Z</time>
      </trkpt>
      <trkpt lat="47.52713" lon="-1.45082">
        <ele>-3</ele>
        <time>2020-01-11T15:37:51Z</time>
      </trkpt>
      <trkpt lat="47.52727" lon="-1.45103">
        <ele>-3</ele>
        <time>2020-01-11T15:37:57Z</time>
      </trkpt>
      <trkpt lat="47.52748" lon="-1.4513">
        <ele>-3</ele>
        <time>2020-01-11T15:38:05Z</time>
      </trkpt>
      <trkpt lat="47.52765" lon="-1.45152">
        <ele>-3</ele>
        <time>2020-01-11T15:38:12Z</time>
      </trkpt>
      <trkpt lat="47.52773" lon="-1.45166">
        <ele>-3</ele>
        <time>2020-01-11T15:38:18Z</time>
      </trkpt>
      <trkpt lat="47.52789" lon="-1.45193">
        <ele>-3</ele>
        <time>2020-01-11T15:39:30Z</time>
      </trkpt>
      <trkpt lat="47.52794" lon="-1.45202">
        <ele>-3</ele>
        <time>2020-01-11T15:39:33Z</time>
      </trkpt>
      <trkpt lat="47.528" lon="-1.4523">
        <ele>-3</ele>
        <time>2020-01-11T15:39:38Z</time>
      </trkpt>
      <trkpt lat="47.52794" lon="-1.45263">
        <ele>-2</ele>
        <time>2020-01-11T15:39:44Z</time>
      </trkpt>
      <trkpt lat="47.52789" lon="-1.45297">
        <ele>-2</ele>
        <time>2020-01-11T15:39:51Z</time>
      </trkpt>
      <trkpt lat="47.52783" lon="-1.45329">
        <ele>-2</ele>
        <time>2020-01-11T15:39:58Z</time>
      </trkpt>
      <trkpt lat="47.52778" lon="-1.4536">
        <ele>-2</ele>
        <time>2020-01-11T15:40:04Z</time>
      </trkpt>
      <trkpt lat="47.52775" lon="-1.4537">
        <ele>-2</ele>
        <time>2020-01-11T15:40:06Z</time>
      </trkpt>
      <trkpt lat="47.52768" lon="-1.45401">
        <ele>-1</ele>
        <time>2020-01-11T15:40:12Z</time>
      </trkpt>
      <trkpt lat="47.52763" lon="-1.45431">
        <ele>-1</ele>
        <time>2020-01-11T15:40:18Z</time>
      </trkpt>
      <trkpt lat="47.52754" lon="-1.45444">
        <ele>-1</ele>
        <time>2020-01-11T15:41:18Z</time>
      </trkpt>
      <trkpt lat="47.52741" lon="-1.45428">
        <ele>-1</ele>
        <time>2020-01-11T15:41:23Z</time>
      </trkpt>
      <trkpt lat="47.52717" lon="-1.45404">
        <ele>-1</ele>
        <time>2020-01-11T15:41:29Z</time>
      </trkpt>
      <trkpt lat="47.5271" lon="-1.45396">
        <ele>-2</ele>
        <time>2020-01-11T15:41:31Z</time>
      </trkpt>
      <trkpt lat="47.52688" lon="-1.45372">
        <ele>-2</ele>
        <time>2020-01-11T15:41:37Z</time>
      </trkpt>
      <trkpt lat="47.5266" lon="-1.45341">
        <ele>-2</ele>
        <time>2020-01-11T15:41:45Z</time>
      </trkpt>
      <trkpt lat="47.52641" lon="-1.4532">
        <ele>-2</ele>
        <time>2020-01-11T15:41:51Z</time>
      </trkpt>
      <trkpt lat="47.52613" lon="-1.4529">
        <ele>-2</ele>
        <time>2020-01-11T15:41:59Z</time>
      </trkpt>
      <trkpt lat="47.52581" lon="-1.45256">
        <ele>-2</ele>
        <time>2020-01-11T15:42:08Z</time>
      </trkpt>
      <trkpt lat="47.52552" lon="-1.45224">
        <ele>-2</ele>
        <time>2020-01-11T15:42:17Z</time>
      </trkpt>
      <trkpt lat="47.52524" lon="-1.45195">
        <ele>-2</ele>
        <time>2020-01-11T15:42:26Z</time>
      </trkpt>
      <trkpt lat="47.52505" lon="-1.45174">
        <ele>-2</ele>
        <time>2020-01-11T15:42:32Z</time>
      </trkpt>
      <trkpt lat="47.52483" lon="-1.45149">
        <ele>-2</ele>
        <time>2020-01-11T15:42:39Z</time>
      </trkpt>
      <trkpt lat="47.52459" lon="-1.45123">
        <ele>-1</ele>
        <time>2020-01-11T15:42:48Z</time>
      </trkpt>
      <trkpt lat="47.52449" lon="-1.4511">
        <ele>-1</ele>
        <time>2020-01-11T15:42:54Z</time>
      </trkpt>
      <trkpt lat="47.52446" lon="-1.45094">
        <ele>-1</ele>
        <time>2020-01-11T15:42:59Z</time>
      </trkpt>
      <trkpt lat="47.52442" lon="-1.45045">
        <ele>35.1</ele>
        <time>2020-01-11T15:43:09Z</time>
      </trkpt>
      <trkpt lat="47.52434" lon="-1.45">
        <ele>35.4</ele>
        <time>2020-01-11T15:43:17Z</time>
      </trkpt>
      <trkpt lat="47.52429" lon="-1.44958">
        <ele>35</ele>
        <time>2020-01-11T15:43:24Z</time>
      </trkpt>
      <trkpt lat="47.52423" lon="-1.4492">
        <ele>34.8</ele>
        <time>2020-01-11T15:43:30Z</time>
      </trkpt>
      <trkpt lat="47.52421" lon="-1.44898">
        <ele>34.3</ele>
        <time>2020-01-11T15:43:33Z</time>
      </trkpt>
      <trkpt lat="47.52416" lon="-1.44872">
        <ele>-1</ele>
        <time>2020-01-11T15:43:37Z</time>
      </trkpt>
      <trkpt lat="47.52411" lon="-1.44822">
        <ele>-1</ele>
        <time>2020-01-11T15:43:44Z</time>
      </trkpt>
      <trkpt lat="47.52408" lon="-1.44793">
        <ele>-2</ele>
        <time>2020-01-11T15:43:48Z</time>
      </trkpt>
      <trkpt lat="47.52405" lon="-1.44768">
        <ele>-2</ele>
        <time>2020-01-11T15:43:52Z</time>
      </trkpt>
      <trkpt lat="47.52401" lon="-1.4472">
        <ele>-1</ele>
        <time>2020-01-11T15:44:00Z</time>
      </trkpt>
      <trkpt lat="47.52398" lon="-1.44697">
        <ele>-1</ele>
        <time>2020-01-11T15:44:04Z</time>
      </trkpt>
      <trkpt lat="47.52394" lon="-1.44659">
        <ele>35.4</ele>
        <time>2020-01-11T15:44:10Z</time>
      </trkpt>
      <trkpt lat="47.52388" lon="-1.44615">
        <ele>35</ele>
        <time>2020-01-11T15:44:17Z</time>
      </trkpt>
      <trkpt lat="47.52381" lon="-1.44551">
        <ele>35.3</ele>
        <time>2020-01-11T15:44:27Z</time>
      </trkpt>
      <trkpt lat="47.52374" lon="-1.44501">
        <ele>34.6</ele>
        <time>2020-01-11T15:44:35Z</time>
      </trkpt>
      <trkpt lat="47.52368" lon="-1.44457">
        <ele>34.2</ele>
        <time>2020-01-11T15:44:42Z</time>
      </trkpt>
      <trkpt lat="47.5236" lon="-1.44398">
        <ele>-1</ele>
        <time>2020-01-11T15:44:50Z</time>
      </trkpt>
      <trkpt lat="47.52356" lon="-1.44374">
        <ele>-2</ele>
        <time>2020-01-11T15:44:53Z</time>
      </trkpt>
      <trkpt lat="47.52351" lon="-1.44337">
        <ele>-3</ele>
        <time>2020-01-11T15:44:58Z</time>
      </trkpt>
      <trkpt lat="47.5235" lon="-1.44324">
        <ele>-3</ele>
        <time>2020-01-11T15:45:00Z</time>
      </trkpt>
      <trkpt lat="47.52349" lon="-1.4431">
        <ele>-3</ele>
        <time>2020-01-11T15:45:03Z</time>
      </trkpt>
      <trkpt lat="47.52349" lon="-1.44294">
        <ele>-2</ele>
        <time>2020-01-11T15:45:17Z</time>
      </trkpt>
      <trkpt lat="47.52355" lon="-1.44286">
        <ele>-2</ele>
        <time>2020-01-11T15:45:20Z</time>
      </trkpt>
      <trkpt lat="47.52357" lon="-1.44282">
        <ele>-2</ele>
        <time>2020-01-11T15:45:21Z</time>
      </trkpt>
      <trkpt lat="47.52367" lon="-1.44259">
        <ele>-3</ele>
        <time>2020-01-11T15:45:27Z</time>
      </trkpt>
      <trkpt lat="47.52368" lon="-1.44242">
        <ele>-3</ele>
        <time>2020-01-11T15:45:32Z</time>
      </trkpt>
      <trkpt lat="47.52364" lon="-1.44227">
        <ele>-3</ele>
        <time>2020-01-11T15:45:37Z</time>
      </trkpt>
      <trkpt lat="47.52361" lon="-1.4422">
        <ele>-3</ele>
        <time>2020-01-11T15:45:42Z</time>
      </trkpt>
      <trkpt lat="47.52358" lon="-1.44217">
        <ele>-3</ele>
        <time>2020-01-11T15:45:44Z</time>
      </trkpt>
      <trkpt lat="47.52346" lon="-1.44156">
        <ele>-3</ele>
        <time>2020-01-11T15:46:09Z</time>
      </trkpt>
      <trkpt lat="47.52346" lon="-1.44149">
        <ele>-3</ele>
        <time>2020-01-11T15:46:11Z</time>
      </trkpt>
      <trkpt lat="47.52347" lon="-1.44128">
        <ele>-3</ele>
        <time>2020-01-11T15:46:17Z</time>
      </trkpt>
      <trkpt lat="47.52347" lon="-1.44121">
        <ele>-3</ele>
        <time>2020-01-11T15:46:19Z</time>
      </trkpt>
      <trkpt lat="47.52346" lon="-1.44114">
        <ele>-3</ele>
        <time>2020-01-11T15:46:22Z</time>
      </trkpt>
      <trkpt lat="47.52347" lon="-1.44093">
        <ele>-3</ele>
        <time>2020-01-11T15:46:28Z</time>
      </trkpt>
      <trkpt lat="47.52349" lon="-1.44076">
        <ele>-3</ele>
        <time>2020-01-11T15:46:34Z</time>
      </trkpt>
      <trkpt lat="47.5235" lon="-1.44054">
        <ele>-3</ele>
        <time>2020-01-11T15:46:41Z</time>
      </trkpt>
      <trkpt lat="47.52346" lon="-1.44028">
        <ele>-3</ele>
        <time>2020-01-11T15:46:48Z</time>
      </trkpt>
      <trkpt lat="47.52347" lon="-1.43998">
        <ele>-3</ele>
        <time>2020-01-11T15:46:54Z</time>
      </trkpt>
      <trkpt lat="47.52345" lon="-1.4398">
        <ele>-3</ele>
        <time>2020-01-11T15:48:45Z</time>
      </trkpt>
      <trkpt lat="47.52344" lon="-1.43977">
        <ele>-3</ele>
        <time>2020-01-11T15:48:46Z</time>
      </trkpt>
      <trkpt lat="47.52341" lon="-1.43954">
        <ele>-3</ele>
        <time>2020-01-11T15:48:52Z</time>
      </trkpt>
      <trkpt lat="47.5234" lon="-1.43934">
        <ele>-3</ele>
        <time>2020-01-11T15:48:58Z</time>
      </trkpt>
      <trkpt lat="47.52341" lon="-1.43924">
        <ele>-3</ele>
        <time>2020-01-11T15:49:01Z</time>
      </trkpt>
      <trkpt lat="47.52341" lon="-1.43917">
        <ele>-3</ele>
        <time>2020-01-11T15:49:03Z</time>
      </trkpt>
      <trkpt lat="47.5234" lon="-1.43896">
        <ele>-3</ele>
        <time>2020-01-11T15:49:09Z</time>
      </trkpt>
      <trkpt lat="47.52343" lon="-1.43858">
        <ele>-3</ele>
        <time>2020-01-11T15:49:16Z</time>
      </trkpt>
      <trkpt lat="47.52347" lon="-1.4383">
        <ele>-3</ele>
        <time>2020-01-11T15:49:21Z</time>
      </trkpt>
      <trkpt lat="47.52349" lon="-1.43793">
        <ele>-3</ele>
        <time>2020-01-11T15:49:27Z</time>
      </trkpt>
      <trkpt lat="47.52353" lon="-1.4375">
        <ele>-3</ele>
        <time>2020-01-11T15:49:34Z</time>
      </trkpt>
      <trkpt lat="47.52357" lon="-1.43717">
        <ele>-3</ele>
        <time>2020-01-11T15:49:40Z</time>
      </trkpt>
      <trkpt lat="47.52361" lon="-1.43683">
        <ele>-3</ele>
        <time>2020-01-11T15:49:46Z</time>
      </trkpt>
      <trkpt lat="47.52363" lon="-1.43658">
        <ele>-3</ele>
        <time>2020-01-11T15:49:52Z</time>
      </trkpt>
      <trkpt lat="47.52367" lon="-1.43632">
        <ele>-3</ele>
        <time>2020-01-11T15:49:58Z</time>
      </trkpt>
      <trkpt lat="47.5237" lon="-1.43604">
        <ele>-3</ele>
        <time>2020-01-11T15:50:05Z</time>
      </trkpt>
      <trkpt lat="47.52367" lon="-1.4358">
        <ele>-3</ele>
        <time>2020-01-11T15:50:11Z</time>
      </trkpt>
      <trkpt lat="47.52361" lon="-1.43551">
        <ele>-3</ele>
        <time>2020-01-11T15:50:19Z</time>
      </trkpt>
      <trkpt lat="47.52357" lon="-1.43527">
        <ele>-3</ele>
        <time>2020-01-11T15:50:26Z</time>
      </trkpt>
      <trkpt lat="47.5236" lon="-1.43499">
        <ele>-2</ele>
        <time>2020-01-11T15:50:31Z</time>
      </trkpt>
      <trkpt lat="47.5236" lon="-1.43482">
        <ele>-2</ele>
        <time>2020-01-11T15:50:36Z</time>
      </trkpt>
      <trkpt lat="47.52362" lon="-1.43476">
        <ele>-2</ele>
        <time>2020-01-11T15:50:45Z</time>
      </trkpt>
      <trkpt lat="47.52362" lon="-1.43473">
        <ele>-2</ele>
        <time>2020-01-11T15:50:46Z</time>
      </trkpt>
      <trkpt lat="47.52368" lon="-1.43451">
        <ele>-2</ele>
        <time>2020-01-11T15:50:51Z</time>
      </trkpt>
      <trkpt lat="47.52377" lon="-1.43419">
        <ele>-3</ele>
        <time>2020-01-11T15:50:58Z</time>
      </trkpt>
      <trkpt lat="47.52379" lon="-1.43398">
        <ele>-3</ele>
        <time>2020-01-11T15:51:03Z</time>
      </trkpt>
      <trkpt lat="47.52381" lon="-1.43375">
        <ele>-3</ele>
        <time>2020-01-11T15:51:08Z</time>
      </trkpt>
      <trkpt lat="47.52385" lon="-1.43353">
        <ele>-3</ele>
        <time>2020-01-11T15:51:13Z</time>
      </trkpt>
      <trkpt lat="47.52382" lon="-1.43335">
        <ele>-3</ele>
        <time>2020-01-11T15:51:17Z</time>
      </trkpt>
      <trkpt lat="47.52372" lon="-1.43329">
        <ele>-3</ele>
        <time>2020-01-11T15:51:22Z</time>
      </trkpt>
      <trkpt lat="47.52364" lon="-1.43326">
        <ele>-2</ele>
        <time>2020-01-11T15:51:26Z</time>
      </trkpt>
      <trkpt lat="47.52361" lon="-1.43321">
        <ele>-2</ele>
        <time>2020-01-11T15:51:28Z</time>
      </trkpt>
      <trkpt lat="47.52352" lon="-1.43301">
        <ele>-1</ele>
        <time>2020-01-11T15:51:35Z</time>
      </trkpt>
      <trkpt lat="47.52339" lon="-1.43279">
        <ele>-1</ele>
        <time>2020-01-11T15:51:42Z</time>
      </trkpt>
      <trkpt lat="47.52327" lon="-1.4325">
        <ele>-1</ele>
        <time>2020-01-11T15:51:49Z</time>
      </trkpt>
      <trkpt lat="47.52314" lon="-1.43212">
        <ele>-2</ele>
        <time>2020-01-11T15:51:58Z</time>
      </trkpt>
      <trkpt lat="47.52311" lon="-1.4319">
        <ele>-2</ele>
        <time>2020-01-11T15:52:04Z</time>
      </trkpt>
      <trkpt lat="47.52315" lon="-1.43171">
        <ele>-2</ele>
        <time>2020-01-11T15:52:10Z</time>
      </trkpt>
      <trkpt lat="47.52318" lon="-1.43143">
        <ele>-2</ele>
        <time>2020-01-11T15:52:17Z</time>
      </trkpt>
      <trkpt lat="47.52318" lon="-1.43117">
        <ele>-2</ele>
        <time>2020-01-11T15:52:23Z</time>
      </trkpt>
      <trkpt lat="47.5231" lon="-1.43104">
        <ele>-2</ele>
        <time>2020-01-11T15:52:27Z</time>
      </trkpt>
      <trkpt lat="47.52296" lon="-1.43105">
        <ele>-2</ele>
        <time>2020-01-11T15:52:31Z</time>
      </trkpt>
      <trkpt lat="47.52269" lon="-1.43114">
        <ele>-2</ele>
        <time>2020-01-11T15:52:39Z</time>
      </trkpt>
      <trkpt lat="47.52251" lon="-1.43115">
        <ele>-2</ele>
        <time>2020-01-11T15:52:44Z</time>
      </trkpt>
      <trkpt lat="47.52229" lon="-1.43112">
        <ele>-2</ele>
        <time>2020-01-11T15:52:50Z</time>
      </trkpt>
      <trkpt lat="47.52208" lon="-1.43107">
        <ele>-2</ele>
        <time>2020-01-11T15:52:56Z</time>
      </trkpt>
      <trkpt lat="47.52189" lon="-1.43105">
        <ele>-2</ele>
        <time>2020-01-11T15:53:02Z</time>
      </trkpt>
      <trkpt lat="47.52165" lon="-1.43105">
        <ele>-2</ele>
        <time>2020-01-11T15:53:09Z</time>
      </trkpt>
      <trkpt lat="47.52133" lon="-1.43106">
        <ele>-2</ele>
        <time>2020-01-11T15:53:17Z</time>
      </trkpt>
      <trkpt lat="47.5211" lon="-1.43095">
        <ele>-2</ele>
        <time>2020-01-11T15:53:24Z</time>
      </trkpt>
      <trkpt lat="47.52086" lon="-1.43083">
        <ele>-2</ele>
        <time>2020-01-11T15:53:31Z</time>
      </trkpt>
      <trkpt lat="47.52066" lon="-1.43079">
        <ele>-2</ele>
        <time>2020-01-11T15:53:37Z</time>
      </trkpt>
      <trkpt lat="47.52035" lon="-1.43073">
        <ele>-2</ele>
        <time>2020-01-11T15:53:46Z</time>
      </trkpt>
      <trkpt lat="47.52013" lon="-1.4307">
        <ele>-2</ele>
        <time>2020-01-11T15:53:52Z</time>
      </trkpt>
      <trkpt lat="47.52001" lon="-1.43068">
        <ele>-2</ele>
        <time>2020-01-11T15:53:55Z</time>
      </trkpt>
      <trkpt lat="47.51994" lon="-1.43063">
        <ele>-2</ele>
        <time>2020-01-11T15:53:57Z</time>
      </trkpt>
      <trkpt lat="47.51965" lon="-1.43046">
        <ele>-2</ele>
        <time>2020-01-11T15:54:05Z</time>
      </trkpt>
      <trkpt lat="47.51943" lon="-1.43032">
        <ele>-2</ele>
        <time>2020-01-11T15:54:12Z</time>
      </trkpt>
      <trkpt lat="47.51925" lon="-1.43025">
        <ele>-2</ele>
        <time>2020-01-11T15:54:18Z</time>
      </trkpt>
      <trkpt lat="47.51913" lon="-1.43034">
        <ele>-2</ele>
        <time>2020-01-11T15:54:22Z</time>
      </trkpt>
      <trkpt lat="47.51896" lon="-1.43047">
        <ele>-2</ele>
        <time>2020-01-11T15:54:27Z</time>
      </trkpt>
      <trkpt lat="47.51883" lon="-1.43046">
        <ele>-2</ele>
        <time>2020-01-11T15:54:30Z</time>
      </trkpt>
      <trkpt lat="47.51875" lon="-1.43042">
        <ele>-2</ele>
        <time>2020-01-11T15:54:32Z</time>
      </trkpt>
      <trkpt lat="47.51854" lon="-1.43025">
        <ele>-2</ele>
        <time>2020-01-11T15:54:39Z</time>
      </trkpt>
      <trkpt lat="47.51837" lon="-1.43021">
        <ele>-2</ele>
        <time>2020-01-11T15:54:44Z</time>
      </trkpt>
      <trkpt lat="47.51815" lon="-1.43026">
        <ele>-2</ele>
        <time>2020-01-11T15:54:50Z</time>
      </trkpt>
      <trkpt lat="47.51787" lon="-1.43026">
        <ele>-2</ele>
        <time>2020-01-11T15:54:58Z</time>
      </trkpt>
      <trkpt lat="47.51773" lon="-1.43029">
        <ele>-1</ele>
        <time>2020-01-11T15:55:04Z</time>
      </trkpt>
      <trkpt lat="47.51772" lon="-1.4303">
        <ele>-1</ele>
        <time>2020-01-11T15:55:05Z</time>
      </trkpt>
      <trkpt lat="47.51757" lon="-1.43034">
        <ele>-1</ele>
        <time>2020-01-11T15:55:12Z</time>
      </trkpt>
      <trkpt lat="47.5175" lon="-1.43032">
        <ele>-1</ele>
        <time>2020-01-11T15:55:15Z</time>
      </trkpt>
      <trkpt lat="47.51749" lon="-1.43028">
        <ele>-2</ele>
        <time>2020-01-11T15:55:17Z</time>
      </trkpt>
      <trkpt lat="47.51749" lon="-1.43021">
        <ele>-2</ele>
        <time>2020-01-11T15:55:20Z</time>
      </trkpt>
      <trkpt lat="47.51749" lon="-1.43015">
        <ele>-1</ele>
        <time>2020-01-11T15:55:30Z</time>
      </trkpt>
      <trkpt lat="47.51751" lon="-1.43005">
        <ele>-2</ele>
        <time>2020-01-11T15:55:33Z</time>
      </trkpt>
      <trkpt lat="47.51752" lon="-1.43001">
        <ele>-2</ele>
        <time>2020-01-11T15:55:34Z</time>
      </trkpt>
      <trkpt lat="47.51751" lon="-1.42978">
        <ele>-2</ele>
        <time>2020-01-11T15:55:39Z</time>
      </trkpt>
      <trkpt lat="47.51754" lon="-1.42953">
        <ele>-2</ele>
        <time>2020-01-11T15:55:46Z</time>
      </trkpt>
      <trkpt lat="47.51755" lon="-1.42924">
        <ele>-2</ele>
        <time>2020-01-11T15:55:53Z</time>
      </trkpt>
      <trkpt lat="47.51756" lon="-1.42901">
        <ele>-2</ele>
        <time>2020-01-11T15:56:00Z</time>
      </trkpt>
      <trkpt lat="47.51756" lon="-1.42876">
        <ele>-2</ele>
        <time>2020-01-11T15:56:08Z</time>
      </trkpt>
      <trkpt lat="47.51755" lon="-1.42871">
        <ele>-2</ele>
        <time>2020-01-11T15:56:14Z</time>
      </trkpt>
      <trkpt lat="47.51761" lon="-1.42868">
        <ele>-1</ele>
        <time>2020-01-11T15:57:56Z</time>
      </trkpt>
      <trkpt lat="47.51767" lon="-1.42869">
        <ele>-1</ele>
        <time>2020-01-11T15:57:58Z</time>
      </trkpt>
      <trkpt lat="47.51787" lon="-1.42866">
        <ele>-1</ele>
        <time>2020-01-11T15:58:04Z</time>
      </trkpt>
      <trkpt lat="47.51804" lon="-1.42864">
        <ele>-1</ele>
        <time>2020-01-11T15:58:10Z</time>
      </trkpt>
      <trkpt lat="47.51813" lon="-1.42862">
        <ele>-1</ele>
        <time>2020-01-11T15:58:13Z</time>
      </trkpt>
      <trkpt lat="47.51823" lon="-1.42858">
        <ele>33.5</ele>
        <time>2020-01-11T15:58:16Z</time>
      </trkpt>
      <trkpt lat="47.5185" lon="-1.42852">
        <ele>-1</ele>
        <time>2020-01-11T15:58:21Z</time>
      </trkpt>
      <trkpt lat="47.51872" lon="-1.4284">
        <ele>-1</ele>
        <time>2020-01-11T15:58:27Z</time>
      </trkpt>
      <trkpt lat="47.51881" lon="-1.4282">
        <ele>-1</ele>
        <time>2020-01-11T15:58:31Z</time>
      </trkpt>
      <trkpt lat="47.51895" lon="-1.42773">
        <ele>-1</ele>
        <time>2020-01-11T15:58:39Z</time>
      </trkpt>
      <trkpt lat="47.51897" lon="-1.42735">
        <ele>-2</ele>
        <time>2020-01-11T15:58:45Z</time>
      </trkpt>
      <trkpt lat="47.51897" lon="-1.42712">
        <ele>-2</ele>
        <time>2020-01-11T15:58:49Z</time>
      </trkpt>
      <trkpt lat="47.51898" lon="-1.42694">
        <ele>-2</ele>
        <time>2020-01-11T15:58:52Z</time>
      </trkpt>
      <trkpt lat="47.51904" lon="-1.42647">
        <ele>-2</ele>
        <time>2020-01-11T15:59:00Z</time>
      </trkpt>
      <trkpt lat="47.51911" lon="-1.42599">
        <ele>-2</ele>
        <time>2020-01-11T15:59:08Z</time>
      </trkpt>
      <trkpt lat="47.51915" lon="-1.42561">
        <ele>-2</ele>
        <time>2020-01-11T15:59:15Z</time>
      </trkpt>
      <trkpt lat="47.51919" lon="-1.42524">
        <ele>-2</ele>
        <time>2020-01-11T15:59:22Z</time>
      </trkpt>
      <trkpt lat="47.51926" lon="-1.42498">
        <ele>-3</ele>
        <time>2020-01-11T15:59:28Z</time>
      </trkpt>
      <trkpt lat="47.51934" lon="-1.42472">
        <ele>-3</ele>
        <time>2020-01-11T15:59:33Z</time>
      </trkpt>
      <trkpt lat="47.51936" lon="-1.42467">
        <ele>-3</ele>
        <time>2020-01-11T15:59:34Z</time>
      </trkpt>
      <trkpt lat="47.51941" lon="-1.42439">
        <ele>-3</ele>
        <time>2020-01-11T15:59:40Z</time>
      </trkpt>
      <trkpt lat="47.51943" lon="-1.42422">
        <ele>-3</ele>
        <time>2020-01-11T15:59:44Z</time>
      </trkpt>
      <trkpt lat="47.51944" lon="-1.42418">
        <ele>-3</ele>
        <time>2020-01-11T15:59:45Z</time>
      </trkpt>
      <trkpt lat="47.51944" lon="-1.42395">
        <ele>-3</ele>
        <time>2020-01-11T15:59:51Z</time>
      </trkpt>
      <trkpt lat="47.51944" lon="-1.42392">
        <ele>-3</ele>
        <time>2020-01-11T15:59:52Z</time>
      </trkpt>
      <trkpt lat="47.51943" lon="-1.42376">
        <ele>-3</ele>
        <time>2020-01-11T15:59:56Z</time>
      </trkpt>
      <trkpt lat="47.51947" lon="-1.42342">
        <ele>-3</ele>
        <time>2020-01-11T16:00:02Z</time>
      </trkpt>
      <trkpt lat="47.5195" lon="-1.4232">
        <ele>-3</ele>
        <time>2020-01-11T16:00:07Z</time>
      </trkpt>
      <trkpt lat="47.51957" lon="-1.42289">
        <ele>-3</ele>
        <time>2020-01-11T16:00:13Z</time>
      </trkpt>
      <trkpt lat="47.51968" lon="-1.42253">
        <ele>-3</ele>
        <time>2020-01-11T16:00:20Z</time>
      </trkpt>
      <trkpt lat="47.51973" lon="-1.42216">
        <ele>-3</ele>
        <time>2020-01-11T16:00:27Z</time>
      </trkpt>
      <trkpt lat="47.51973" lon="-1.42181">
        <ele>-3</ele>
        <time>2020-01-11T16:00:35Z</time>
      </trkpt>
      <trkpt lat="47.51975" lon="-1.42162">
        <ele>-3</ele>
        <time>2020-01-11T16:00:41Z</time>
      </trkpt>
      <trkpt lat="47.51974" lon="-1.42144">
        <ele>-3</ele>
        <time>2020-01-11T16:00:48Z</time>
      </trkpt>
      <trkpt lat="47.51976" lon="-1.42123">
        <ele>-3</ele>
        <time>2020-01-11T16:00:54Z</time>
      </trkpt>
      <trkpt lat="47.51979" lon="-1.42116">
        <ele>-3</ele>
        <time>2020-01-11T16:00:56Z</time>
      </trkpt>
      <trkpt lat="47.51982" lon="-1.42113">
        <ele>-3</ele>
        <time>2020-01-11T16:00:58Z</time>
      </trkpt>
      <trkpt lat="47.51984" lon="-1.42112">
        <ele>-2</ele>
        <time>2020-01-11T16:00:59Z</time>
      </trkpt>
      <trkpt lat="47.51995" lon="-1.42109">
        <ele>-3</ele>
        <time>2020-01-11T16:01:05Z</time>
      </trkpt>
      <trkpt lat="47.52009" lon="-1.42107">
        <ele>-3</ele>
        <time>2020-01-11T16:01:12Z</time>
      </trkpt>
      <trkpt lat="47.52025" lon="-1.42102">
        <ele>-3</ele>
        <time>2020-01-11T16:01:19Z</time>
      </trkpt>
      <trkpt lat="47.52046" lon="-1.42106">
        <ele>-3</ele>
        <time>2020-01-11T16:02:38Z</time>
      </trkpt>
      <trkpt lat="47.52052" lon="-1.4211">
        <ele>-3</ele>
        <time>2020-01-11T16:02:41Z</time>
      </trkpt>
      <trkpt lat="47.52054" lon="-1.42111">
        <ele>-3</ele>
        <time>2020-01-11T16:02:42Z</time>
      </trkpt>
      <trkpt lat="47.52067" lon="-1.42113">
        <ele>-2</ele>
        <time>2020-01-11T16:02:48Z</time>
      </trkpt>
      <trkpt lat="47.52072" lon="-1.42104">
        <ele>-3</ele>
        <time>2020-01-11T16:02:52Z</time>
      </trkpt>
      <trkpt lat="47.52073" lon="-1.42101">
        <ele>-3</ele>
        <time>2020-01-11T16:02:53Z</time>
      </trkpt>
      <trkpt lat="47.52078" lon="-1.42081">
        <ele>-3</ele>
        <time>2020-01-11T16:02:59Z</time>
      </trkpt>
      <trkpt lat="47.52083" lon="-1.42059">
        <ele>-3</ele>
        <time>2020-01-11T16:03:04Z</time>
      </trkpt>
      <trkpt lat="47.52085" lon="-1.42038">
        <ele>-3</ele>
        <time>2020-01-11T16:03:09Z</time>
      </trkpt>
      <trkpt lat="47.5208" lon="-1.42008">
        <ele>-3</ele>
        <time>2020-01-11T16:03:16Z</time>
      </trkpt>
      <trkpt lat="47.52082" lon="-1.4199">
        <ele>-3</ele>
        <time>2020-01-11T16:03:21Z</time>
      </trkpt>
      <trkpt lat="47.52084" lon="-1.41988">
        <ele>-3</ele>
        <time>2020-01-11T16:03:22Z</time>
      </trkpt>
      <trkpt lat="47.52089" lon="-1.41975">
        <ele>-3</ele>
        <time>2020-01-11T16:03:26Z</time>
      </trkpt>
      <trkpt lat="47.52093" lon="-1.41959">
        <ele>-3</ele>
        <time>2020-01-11T16:03:30Z</time>
      </trkpt>
      <trkpt lat="47.52095" lon="-1.41955">
        <ele>-3</ele>
        <time>2020-01-11T16:03:31Z</time>
      </trkpt>
      <trkpt lat="47.52106" lon="-1.41943">
        <ele>-3</ele>
        <time>2020-01-11T16:03:36Z</time>
      </trkpt>
      <trkpt lat="47.52118" lon="-1.41925">
        <ele>-3</ele>
        <time>2020-01-11T16:03:42Z</time>
      </trkpt>
      <trkpt lat="47.52121" lon="-1.41907">
        <ele>-3</ele>
        <time>2020-01-11T16:03:46Z</time>
      </trkpt>
      <trkpt lat="47.52123" lon="-1.41899">
        <ele>-3</ele>
        <time>2020-01-11T16:03:48Z</time>
      </trkpt>
      <trkpt lat="47.52125" lon="-1.41892">
        <ele>-3</ele>
        <time>2020-01-11T16:03:50Z</time>
      </trkpt>
      <trkpt lat="47.52129" lon="-1.41867">
        <ele>-3</ele>
        <time>2020-01-11T16:03:56Z</time>
      </trkpt>
      <trkpt lat="47.52129" lon="-1.41863">
        <ele>-3</ele>
        <time>2020-01-11T16:03:57Z</time>
      </trkpt>
      <trkpt lat="47.52131" lon="-1.41843">
        <ele>-3</ele>
        <time>2020-01-11T16:04:01Z</time>
      </trkpt>
      <trkpt lat="47.52133" lon="-1.41821">
        <ele>-3</ele>
        <time>2020-01-11T16:04:07Z</time>
      </trkpt>
      <trkpt lat="47.52139" lon="-1.41792">
        <ele>-3</ele>
        <time>2020-01-11T16:04:13Z</time>
      </trkpt>
      <trkpt lat="47.52142" lon="-1.41751">
        <ele>-3</ele>
        <time>2020-01-11T16:04:21Z</time>
      </trkpt>
      <trkpt lat="47.5214" lon="-1.41721">
        <ele>-3</ele>
        <time>2020-01-11T16:04:27Z</time>
      </trkpt>
      <trkpt lat="47.52138" lon="-1.4168">
        <ele>-3</ele>
        <time>2020-01-11T16:04:35Z</time>
      </trkpt>
      <trkpt lat="47.52135" lon="-1.41659">
        <ele>-3</ele>
        <time>2020-01-11T16:04:40Z</time>
      </trkpt>
      <trkpt lat="47.52134" lon="-1.41631">
        <ele>-3</ele>
        <time>2020-01-11T16:04:46Z</time>
      </trkpt>
      <trkpt lat="47.52139" lon="-1.41609">
        <ele>-3</ele>
        <time>2020-01-11T16:04:51Z</time>
      </trkpt>
      <trkpt lat="47.5214" lon="-1.41582">
        <ele>-3</ele>
        <time>2020-01-11T16:04:57Z</time>
      </trkpt>
      <trkpt lat="47.52141" lon="-1.41566">
        <ele>-3</ele>
        <time>2020-01-11T16:05:00Z</time>
      </trkpt>
      <trkpt lat="47.52139" lon="-1.41556">
        <ele>-3</ele>
        <time>2020-01-11T16:05:02Z</time>
      </trkpt>
      <trkpt lat="47.52138" lon="-1.41535">
        <ele>-3</ele>
        <time>2020-01-11T16:05:07Z</time>
      </trkpt>
      <trkpt lat="47.52137" lon="-1.41489">
        <ele>-3</ele>
        <time>2020-01-11T16:05:15Z</time>
      </trkpt>
      <trkpt lat="47.52142" lon="-1.41464">
        <ele>-3</ele>
        <time>2020-01-11T16:05:21Z</time>
      </trkpt>
      <trkpt lat="47.52147" lon="-1.41438">
        <ele>-3</ele>
        <time>2020-01-11T16:05:27Z</time>
      </trkpt>
      <trkpt lat="47.52152" lon="-1.41406">
        <ele>-3</ele>
        <time>2020-01-11T16:05:34Z</time>
      </trkpt>
      <trkpt lat="47.52153" lon="-1.41404">
        <ele>-3</ele>
        <time>2020-01-11T16:05:35Z</time>
      </trkpt>
      <trkpt lat="47.52157" lon="-1.41396">
        <ele>-3</ele>
        <time>2020-01-11T16:05:38Z</time>
      </trkpt>
      <trkpt lat="47.52165" lon="-1.41372">
        <ele>-3</ele>
        <time>2020-01-11T16:05:44Z</time>
      </trkpt>
      <trkpt lat="47.52172" lon="-1.41355">
        <ele>-3</ele>
        <time>2020-01-11T16:05:49Z</time>
      </trkpt>
      <trkpt lat="47.52179" lon="-1.41338">
        <ele>-3</ele>
        <time>2020-01-11T16:05:54Z</time>
      </trkpt>
      <trkpt lat="47.52189" lon="-1.41318">
        <ele>-3</ele>
        <time>2020-01-11T16:05:59Z</time>
      </trkpt>
      <trkpt lat="47.52207" lon="-1.41302">
        <ele>-3</ele>
        <time>2020-01-11T16:06:06Z</time>
      </trkpt>
      <trkpt lat="47.52226" lon="-1.41294">
        <ele>-3</ele>
        <time>2020-01-11T16:06:12Z</time>
      </trkpt>
      <trkpt lat="47.52238" lon="-1.41284">
        <ele>-3</ele>
        <time>2020-01-11T16:06:17Z</time>
      </trkpt>
      <trkpt lat="47.52249" lon="-1.41271">
        <ele>-3</ele>
        <time>2020-01-11T16:06:23Z</time>
      </trkpt>
      <trkpt lat="47.52259" lon="-1.41251">
        <ele>-3</ele>
        <time>2020-01-11T16:06:30Z</time>
      </trkpt>
      <trkpt lat="47.52274" lon="-1.41224">
        <ele>-3</ele>
        <time>2020-01-11T16:06:37Z</time>
      </trkpt>
      <trkpt lat="47.52281" lon="-1.41207">
        <ele>-3</ele>
        <time>2020-01-11T16:06:41Z</time>
      </trkpt>
      <trkpt lat="47.52283" lon="-1.41197">
        <ele>-3</ele>
        <time>2020-01-11T16:06:43Z</time>
      </trkpt>
      <trkpt lat="47.52287" lon="-1.4117">
        <ele>-3</ele>
        <time>2020-01-11T16:06:49Z</time>
      </trkpt>
      <trkpt lat="47.52292" lon="-1.41133">
        <ele>-3</ele>
        <time>2020-01-11T16:06:57Z</time>
      </trkpt>
      <trkpt lat="47.52292" lon="-1.41129">
        <ele>-3</ele>
        <time>2020-01-11T16:06:58Z</time>
      </trkpt>
      <trkpt lat="47.52292" lon="-1.41113">
        <ele>-3</ele>
        <time>2020-01-11T16:07:02Z</time>
      </trkpt>
      <trkpt lat="47.52295" lon="-1.41104">
        <ele>-3</ele>
        <time>2020-01-11T16:07:05Z</time>
      </trkpt>
      <trkpt lat="47.52298" lon="-1.41098">
        <ele>-3</ele>
        <time>2020-01-11T16:07:07Z</time>
      </trkpt>
      <trkpt lat="47.52305" lon="-1.41077">
        <ele>-3</ele>
        <time>2020-01-11T16:07:13Z</time>
      </trkpt>
      <trkpt lat="47.52314" lon="-1.41055">
        <ele>-3</ele>
        <time>2020-01-11T16:07:19Z</time>
      </trkpt>
      <trkpt lat="47.52327" lon="-1.41036">
        <ele>-3</ele>
        <time>2020-01-11T16:07:25Z</time>
      </trkpt>
      <trkpt lat="47.52339" lon="-1.41034">
        <ele>-3</ele>
        <time>2020-01-11T16:07:30Z</time>
      </trkpt>
      <trkpt lat="47.52359" lon="-1.41034">
        <ele>-3</ele>
        <time>2020-01-11T16:07:37Z</time>
      </trkpt>
      <trkpt lat="47.52374" lon="-1.41033">
        <ele>-3</ele>
        <time>2020-01-11T16:07:43Z</time>
      </trkpt>
      <trkpt lat="47.52389" lon="-1.41023">
        <ele>-3</ele>
        <time>2020-01-11T16:07:48Z</time>
      </trkpt>
      <trkpt lat="47.52402" lon="-1.41011">
        <ele>-2</ele>
        <time>2020-01-11T16:07:54Z</time>
      </trkpt>
      <trkpt lat="47.52411" lon="-1.41002">
        <ele>-2</ele>
        <time>2020-01-11T16:07:59Z</time>
      </trkpt>
      <trkpt lat="47.52426" lon="-1.40985">
        <ele>-2</ele>
        <time>2020-01-11T16:11:28Z</time>
      </trkpt>
      <trkpt lat="47.52428" lon="-1.40978">
        <ele>-2</ele>
        <time>2020-01-11T16:11:31Z</time>
      </trkpt>
      <trkpt lat="47.5243" lon="-1.40969">
        <ele>-2</ele>
        <time>2020-01-11T16:11:34Z</time>
      </trkpt>
      <trkpt lat="47.52432" lon="-1.40961">
        <ele>-2</ele>
        <time>2020-01-11T16:11:36Z</time>
      </trkpt>
      <trkpt lat="47.52435" lon="-1.40939">
        <ele>-3</ele>
        <time>2020-01-11T16:11:40Z</time>
      </trkpt>
      <trkpt lat="47.52439" lon="-1.40923">
        <ele>-3</ele>
        <time>2020-01-11T16:11:44Z</time>
      </trkpt>
      <trkpt lat="47.52438" lon="-1.40919">
        <ele>-3</ele>
        <time>2020-01-11T16:11:45Z</time>
      </trkpt>
      <trkpt lat="47.52436" lon="-1.40899">
        <ele>-3</ele>
        <time>2020-01-11T16:11:50Z</time>
      </trkpt>
      <trkpt lat="47.52435" lon="-1.40894">
        <ele>-3</ele>
        <time>2020-01-11T16:11:51Z</time>
      </trkpt>
      <trkpt lat="47.52437" lon="-1.40868">
        <ele>-3</ele>
        <time>2020-01-11T16:11:56Z</time>
      </trkpt>
      <trkpt lat="47.52436" lon="-1.40844">
        <ele>-3</ele>
        <time>2020-01-11T16:12:01Z</time>
      </trkpt>
      <trkpt lat="47.52437" lon="-1.40814">
        <ele>-3</ele>
        <time>2020-01-11T16:12:07Z</time>
      </trkpt>
      <trkpt lat="47.52429" lon="-1.4079">
        <ele>-3</ele>
        <time>2020-01-11T16:12:12Z</time>
      </trkpt>
      <trkpt lat="47.52416" lon="-1.40767">
        <ele>-3</ele>
        <time>2020-01-11T16:12:18Z</time>
      </trkpt>
      <trkpt lat="47.52398" lon="-1.40756">
        <ele>-3</ele>
        <time>2020-01-11T16:12:24Z</time>
      </trkpt>
      <trkpt lat="47.52385" lon="-1.40759">
        <ele>-3</ele>
        <time>2020-01-11T16:12:29Z</time>
      </trkpt>
      <trkpt lat="47.5237" lon="-1.40761">
        <ele>-3</ele>
        <time>2020-01-11T16:12:34Z</time>
      </trkpt>
      <trkpt lat="47.52356" lon="-1.40764">
        <ele>-3</ele>
        <time>2020-01-11T16:12:39Z</time>
      </trkpt>
      <trkpt lat="47.52342" lon="-1.40767">
        <ele>-3</ele>
        <time>2020-01-11T16:12:44Z</time>
      </trkpt>
      <trkpt lat="47.52322" lon="-1.40768">
        <ele>-3</ele>
        <time>2020-01-11T16:12:51Z</time>
      </trkpt>
      <trkpt lat="47.5231" lon="-1.40756">
        <ele>-3</ele>
        <time>2020-01-11T16:12:56Z</time>
      </trkpt>
      <trkpt lat="47.52309" lon="-1.40751">
        <ele>-3</ele>
        <time>2020-01-11T16:12:57Z</time>
      </trkpt>
      <trkpt lat="47.52309" lon="-1.40736">
        <ele>-2</ele>
        <time>2020-01-11T16:13:00Z</time>
      </trkpt>
      <trkpt lat="47.52311" lon="-1.40703">
        <ele>-2</ele>
        <time>2020-01-11T16:13:08Z</time>
      </trkpt>
      <trkpt lat="47.5231" lon="-1.40684">
        <ele>-2</ele>
        <time>2020-01-11T16:13:13Z</time>
      </trkpt>
      <trkpt lat="47.52314" lon="-1.40665">
        <ele>-2</ele>
        <time>2020-01-11T16:13:19Z</time>
      </trkpt>
      <trkpt lat="47.52318" lon="-1.40644">
        <ele>-2</ele>
        <time>2020-01-11T16:13:24Z</time>
      </trkpt>
      <trkpt lat="47.52319" lon="-1.40639">
        <ele>-2</ele>
        <time>2020-01-11T16:13:25Z</time>
      </trkpt>
      <trkpt lat="47.52321" lon="-1.40613">
        <ele>-2</ele>
        <time>2020-01-11T16:13:31Z</time>
      </trkpt>
      <trkpt lat="47.5232" lon="-1.40596">
        <ele>-3</ele>
        <time>2020-01-11T16:13:36Z</time>
      </trkpt>
      <trkpt lat="47.52319" lon="-1.40593">
        <ele>-3</ele>
        <time>2020-01-11T16:13:37Z</time>
      </trkpt>
      <trkpt lat="47.52315" lon="-1.4057">
        <ele>-3</ele>
        <time>2020-01-11T16:13:43Z</time>
      </trkpt>
      <trkpt lat="47.5231" lon="-1.40538">
        <ele>-3</ele>
        <time>2020-01-11T16:13:50Z</time>
      </trkpt>
      <trkpt lat="47.52306" lon="-1.40513">
        <ele>-3</ele>
        <time>2020-01-11T16:13:56Z</time>
      </trkpt>
      <trkpt lat="47.52303" lon="-1.40492">
        <ele>-3</ele>
        <time>2020-01-11T16:14:02Z</time>
      </trkpt>
      <trkpt lat="47.52306" lon="-1.40461">
        <ele>-3</ele>
        <time>2020-01-11T16:14:09Z</time>
      </trkpt>
      <trkpt lat="47.52311" lon="-1.40429">
        <ele>-3</ele>
        <time>2020-01-11T16:14:16Z</time>
      </trkpt>
      <trkpt lat="47.52317" lon="-1.40401">
        <ele>-3</ele>
        <time>2020-01-11T16:14:23Z</time>
      </trkpt>
      <trkpt lat="47.52322" lon="-1.40381">
        <ele>-3</ele>
        <time>2020-01-11T16:14:29Z</time>
      </trkpt>
      <trkpt lat="47.52327" lon="-1.40359">
        <ele>-3</ele>
        <time>2020-01-11T16:14:35Z</time>
      </trkpt>
      <trkpt lat="47.5233" lon="-1.40333">
        <ele>-3</ele>
        <time>2020-01-11T16:14:41Z</time>
      </trkpt>
      <trkpt lat="47.52331" lon="-1.40304">
        <ele>-3</ele>
        <time>2020-01-11T16:14:48Z</time>
      </trkpt>
      <trkpt lat="47.52332" lon="-1.40278">
        <ele>-3</ele>
        <time>2020-01-11T16:14:53Z</time>
      </trkpt>
      <trkpt lat="47.52331" lon="-1.40246">
        <ele>-3</ele>
        <time>2020-01-11T16:14:59Z</time>
      </trkpt>
      <trkpt lat="47.52327" lon="-1.40217">
        <ele>-3</ele>
        <time>2020-01-11T16:15:05Z</time>
      </trkpt>
      <trkpt lat="47.52323" lon="-1.40189">
        <ele>-3</ele>
        <time>2020-01-11T16:15:11Z</time>
      </trkpt>
      <trkpt lat="47.52325" lon="-1.40161">
        <ele>-3</ele>
        <time>2020-01-11T16:15:17Z</time>
      </trkpt>
      <trkpt lat="47.52325" lon="-1.40136">
        <ele>-3</ele>
        <time>2020-01-11T16:15:22Z</time>
      </trkpt>
      <trkpt lat="47.52325" lon="-1.40105">
        <ele>-3</ele>
        <time>2020-01-11T16:15:29Z</time>
      </trkpt>
      <trkpt lat="47.52323" lon="-1.40082">
        <ele>-3</ele>
        <time>2020-01-11T16:15:35Z</time>
      </trkpt>
      <trkpt lat="47.52313" lon="-1.40075">
        <ele>-3</ele>
        <time>2020-01-11T16:15:39Z</time>
      </trkpt>
      <trkpt lat="47.5231" lon="-1.40074">
        <ele>-3</ele>
        <time>2020-01-11T16:15:40Z</time>
      </trkpt>
      <trkpt lat="47.52288" lon="-1.40071">
        <ele>-3</ele>
        <time>2020-01-11T16:15:47Z</time>
      </trkpt>
      <trkpt lat="47.52269" lon="-1.40067">
        <ele>-3</ele>
        <time>2020-01-11T16:15:53Z</time>
      </trkpt>
      <trkpt lat="47.52259" lon="-1.40066">
        <ele>-3</ele>
        <time>2020-01-11T16:15:58Z</time>
      </trkpt>
      <trkpt lat="47.52245" lon="-1.40062">
        <ele>-3</ele>
        <time>2020-01-11T16:16:04Z</time>
      </trkpt>
      <trkpt lat="47.52231" lon="-1.4006">
        <ele>-3</ele>
        <time>2020-01-11T16:16:10Z</time>
      </trkpt>
      <trkpt lat="47.52223" lon="-1.4005">
        <ele>-2</ele>
        <time>2020-01-11T16:20:07Z</time>
      </trkpt>
      <trkpt lat="47.52223" lon="-1.40046">
        <ele>-2</ele>
        <time>2020-01-11T16:20:08Z</time>
      </trkpt>
      <trkpt lat="47.52226" lon="-1.40025">
        <ele>-2</ele>
        <time>2020-01-11T16:20:12Z</time>
      </trkpt>
      <trkpt lat="47.5223" lon="-1.39973">
        <ele>-3</ele>
        <time>2020-01-11T16:20:21Z</time>
      </trkpt>
      <trkpt lat="47.52234" lon="-1.39931">
        <ele>-3</ele>
        <time>2020-01-11T16:20:28Z</time>
      </trkpt>
      <trkpt lat="47.52239" lon="-1.39893">
        <ele>-3</ele>
        <time>2020-01-11T16:20:35Z</time>
      </trkpt>
      <trkpt lat="47.52248" lon="-1.39851">
        <ele>-3</ele>
        <time>2020-01-11T16:20:42Z</time>
      </trkpt>
      <trkpt lat="47.52259" lon="-1.39806">
        <ele>-3</ele>
        <time>2020-01-11T16:20:49Z</time>
      </trkpt>
      <trkpt lat="47.5227" lon="-1.39751">
        <ele>-3</ele>
        <time>2020-01-11T16:20:58Z</time>
      </trkpt>
      <trkpt lat="47.52273" lon="-1.3971">
        <ele>-3</ele>
        <time>2020-01-11T16:21:05Z</time>
      </trkpt>
      <trkpt lat="47.52269" lon="-1.39677">
        <ele>-3</ele>
        <time>2020-01-11T16:21:11Z</time>
      </trkpt>
      <trkpt lat="47.52259" lon="-1.39649">
        <ele>-2</ele>
        <time>2020-01-11T16:21:18Z</time>
      </trkpt>
      <trkpt lat="47.52244" lon="-1.39621">
        <ele>-2</ele>
        <time>2020-01-11T16:21:26Z</time>
      </trkpt>
      <trkpt lat="47.52233" lon="-1.39609">
        <ele>-2</ele>
        <time>2020-01-11T16:21:32Z</time>
      </trkpt>
      <trkpt lat="47.52227" lon="-1.39608">
        <ele>-1</ele>
        <time>2020-01-11T16:21:56Z</time>
      </trkpt>
      <trkpt lat="47.52224" lon="-1.39607">
        <ele>-1</ele>
        <time>2020-01-11T16:21:57Z</time>
      </trkpt>
      <trkpt lat="47.52217" lon="-1.39601">
        <ele>-1</ele>
        <time>2020-01-11T16:22:00Z</time>
      </trkpt>
      <trkpt lat="47.52216" lon="-1.39596">
        <ele>-1</ele>
        <time>2020-01-11T16:22:01Z</time>
      </trkpt>
      <trkpt lat="47.52209" lon="-1.39562">
        <ele>-2</ele>
        <time>2020-01-11T16:22:07Z</time>
      </trkpt>
      <trkpt lat="47.52202" lon="-1.3952">
        <ele>-2</ele>
        <time>2020-01-11T16:22:15Z</time>
      </trkpt>
      <trkpt lat="47.52202" lon="-1.39515">
        <ele>-3</ele>
        <time>2020-01-11T16:22:16Z</time>
      </trkpt>
      <trkpt lat="47.52206" lon="-1.3949">
        <ele>-3</ele>
        <time>2020-01-11T16:22:21Z</time>
      </trkpt>
      <trkpt lat="47.52215" lon="-1.39464">
        <ele>-2</ele>
        <time>2020-01-11T16:22:27Z</time>
      </trkpt>
      <trkpt lat="47.5222" lon="-1.39455">
        <ele>-2</ele>
        <time>2020-01-11T16:22:31Z</time>
      </trkpt>
      <trkpt lat="47.52233" lon="-1.39452">
        <ele>-3</ele>
        <time>2020-01-11T16:22:37Z</time>
      </trkpt>
      <trkpt lat="47.52246" lon="-1.39446">
        <ele>-3</ele>
        <time>2020-01-11T16:22:43Z</time>
      </trkpt>
      <trkpt lat="47.5226" lon="-1.39432">
        <ele>-3</ele>
        <time>2020-01-11T16:22:49Z</time>
      </trkpt>
      <trkpt lat="47.52274" lon="-1.39417">
        <ele>-3</ele>
        <time>2020-01-11T16:22:56Z</time>
      </trkpt>
      <trkpt lat="47.52289" lon="-1.39401">
        <ele>-3</ele>
        <time>2020-01-11T16:23:03Z</time>
      </trkpt>
      <trkpt lat="47.52307" lon="-1.3937">
        <ele>-3</ele>
        <time>2020-01-11T16:23:09Z</time>
      </trkpt>
      <trkpt lat="47.52307" lon="-1.39366">
        <ele>-3</ele>
        <time>2020-01-11T16:23:10Z</time>
      </trkpt>
      <trkpt lat="47.52307" lon="-1.39357">
        <ele>-3</ele>
        <time>2020-01-11T16:23:13Z</time>
      </trkpt>
      <trkpt lat="47.52308" lon="-1.39355">
        <ele>-3</ele>
        <time>2020-01-11T16:23:14Z</time>
      </trkpt>
      <trkpt lat="47.52309" lon="-1.39353">
        <ele>-3</ele>
        <time>2020-01-11T16:23:15Z</time>
      </trkpt>
      <trkpt lat="47.52316" lon="-1.39345">
        <ele>-3</ele>
        <time>2020-01-11T16:23:18Z</time>
      </trkpt>
      <trkpt lat="47.5232" lon="-1.39332">
        <ele>-3</ele>
        <time>2020-01-11T16:23:21Z</time>
      </trkpt>
      <trkpt lat="47.52324" lon="-1.39325">
        <ele>-3</ele>
        <time>2020-01-11T16:23:23Z</time>
      </trkpt>
      <trkpt lat="47.52329" lon="-1.39318">
        <ele>-3</ele>
        <time>2020-01-11T16:23:26Z</time>
      </trkpt>
      <trkpt lat="47.52335" lon="-1.39318">
        <ele>-3</ele>
        <time>2020-01-11T16:23:29Z</time>
      </trkpt>
      <trkpt lat="47.5234" lon="-1.39321">
        <ele>-3</ele>
        <time>2020-01-11T16:23:31Z</time>
      </trkpt>
      <trkpt lat="47.52347" lon="-1.39312">
        <ele>-3</ele>
        <time>2020-01-11T16:25:01Z</time>
      </trkpt>
      <trkpt lat="47.52356" lon="-1.39298">
        <ele>-3</ele>
        <time>2020-01-11T16:25:07Z</time>
      </trkpt>
      <trkpt lat="47.52369" lon="-1.39284">
        <ele>-3</ele>
        <time>2020-01-11T16:25:13Z</time>
      </trkpt>
      <trkpt lat="47.52387" lon="-1.39272">
        <ele>-3</ele>
        <time>2020-01-11T16:25:21Z</time>
      </trkpt>
      <trkpt lat="47.52397" lon="-1.39261">
        <ele>-3</ele>
        <time>2020-01-11T16:25:28Z</time>
      </trkpt>
      <trkpt lat="47.52407" lon="-1.39252">
        <ele>-3</ele>
        <time>2020-01-11T16:25:34Z</time>
      </trkpt>
      <trkpt lat="47.52417" lon="-1.39243">
        <ele>-3</ele>
        <time>2020-01-11T16:25:40Z</time>
      </trkpt>
      <trkpt lat="47.52433" lon="-1.39226">
        <ele>-3</ele>
        <time>2020-01-11T16:25:48Z</time>
      </trkpt>
      <trkpt lat="47.52445" lon="-1.39216">
        <ele>-3</ele>
        <time>2020-01-11T16:25:53Z</time>
      </trkpt>
      <trkpt lat="47.52461" lon="-1.39195">
        <ele>-3</ele>
        <time>2020-01-11T16:25:59Z</time>
      </trkpt>
      <trkpt lat="47.5247" lon="-1.39174">
        <ele>-3</ele>
        <time>2020-01-11T16:26:04Z</time>
      </trkpt>
      <trkpt lat="47.52473" lon="-1.39156">
        <ele>-3</ele>
        <time>2020-01-11T16:26:09Z</time>
      </trkpt>
      <trkpt lat="47.52476" lon="-1.39136">
        <ele>-3</ele>
        <time>2020-01-11T16:26:14Z</time>
      </trkpt>
      <trkpt lat="47.5248" lon="-1.39109">
        <ele>-3</ele>
        <time>2020-01-11T16:26:21Z</time>
      </trkpt>
      <trkpt lat="47.52485" lon="-1.39088">
        <ele>-3</ele>
        <time>2020-01-11T16:26:28Z</time>
      </trkpt>
      <trkpt lat="47.52489" lon="-1.3906">
        <ele>-3</ele>
        <time>2020-01-11T16:26:35Z</time>
      </trkpt>
      <trkpt lat="47.52493" lon="-1.39027">
        <ele>-3</ele>
        <time>2020-01-11T16:26:42Z</time>
      </trkpt>
      <trkpt lat="47.52495" lon="-1.38995">
        <ele>-3</ele>
        <time>2020-01-11T16:26:48Z</time>
      </trkpt>
      <trkpt lat="47.52499" lon="-1.38962">
        <ele>-3</ele>
        <time>2020-01-11T16:26:56Z</time>
      </trkpt>
      <trkpt lat="47.52505" lon="-1.38932">
        <ele>-3</ele>
        <time>2020-01-11T16:27:03Z</time>
      </trkpt>
      <trkpt lat="47.52511" lon="-1.389">
        <ele>-3</ele>
        <time>2020-01-11T16:27:10Z</time>
      </trkpt>
      <trkpt lat="47.52517" lon="-1.38872">
        <ele>-3</ele>
        <time>2020-01-11T16:27:18Z</time>
      </trkpt>
      <trkpt lat="47.5252" lon="-1.38849">
        <ele>-3</ele>
        <time>2020-01-11T16:27:26Z</time>
      </trkpt>
      <trkpt lat="47.52521" lon="-1.38825">
        <ele>-3</ele>
        <time>2020-01-11T16:27:35Z</time>
      </trkpt>
      <trkpt lat="47.52528" lon="-1.38802">
        <ele>-3</ele>
        <time>2020-01-11T16:27:42Z</time>
      </trkpt>
      <trkpt lat="47.52535" lon="-1.38775">
        <ele>-3</ele>
        <time>2020-01-11T16:27:49Z</time>
      </trkpt>
      <trkpt lat="47.52543" lon="-1.38756">
        <ele>-3</ele>
        <time>2020-01-11T16:27:56Z</time>
      </trkpt>
      <trkpt lat="47.52545" lon="-1.38753">
        <ele>-3</ele>
        <time>2020-01-11T16:27:57Z</time>
      </trkpt>
      <trkpt lat="47.52554" lon="-1.38737">
        <ele>-3</ele>
        <time>2020-01-11T16:28:02Z</time>
      </trkpt>
      <trkpt lat="47.52558" lon="-1.38732">
        <ele>-3</ele>
        <time>2020-01-11T16:28:05Z</time>
      </trkpt>
      <trkpt lat="47.52576" lon="-1.3871">
        <ele>-3</ele>
        <time>2020-01-11T16:28:13Z</time>
      </trkpt>
      <trkpt lat="47.52585" lon="-1.38692">
        <ele>-3</ele>
        <time>2020-01-11T16:28:20Z</time>
      </trkpt>
      <trkpt lat="47.52587" lon="-1.38686">
        <ele>-3</ele>
        <time>2020-01-11T16:28:22Z</time>
      </trkpt>
      <trkpt lat="47.5259" lon="-1.38676">
        <ele>-3</ele>
        <time>2020-01-11T16:28:26Z</time>
      </trkpt>
      <trkpt lat="47.5259" lon="-1.38672">
        <ele>-3</ele>
        <time>2020-01-11T16:28:27Z</time>
      </trkpt>
      <trkpt lat="47.52592" lon="-1.38655">
        <ele>-3</ele>
        <time>2020-01-11T16:28:34Z</time>
      </trkpt>
      <trkpt lat="47.52592" lon="-1.38644">
        <ele>-3</ele>
        <time>2020-01-11T16:28:38Z</time>
      </trkpt>
      <trkpt lat="47.52591" lon="-1.38627">
        <ele>-3</ele>
        <time>2020-01-11T16:28:42Z</time>
      </trkpt>
      <trkpt lat="47.52585" lon="-1.38613">
        <ele>-3</ele>
        <time>2020-01-11T16:28:47Z</time>
      </trkpt>
      <trkpt lat="47.52569" lon="-1.38605">
        <ele>33</ele>
        <time>2020-01-11T16:29:20Z</time>
      </trkpt>
      <trkpt lat="47.52565" lon="-1.38604">
        <ele>33</ele>
        <time>2020-01-11T16:29:22Z</time>
      </trkpt>
      <trkpt lat="47.52552" lon="-1.386">
        <ele>1</ele>
        <time>2020-01-11T16:29:27Z</time>
      </trkpt>
      <trkpt lat="47.52536" lon="-1.38595">
        <ele>1</ele>
        <time>2020-01-11T16:29:33Z</time>
      </trkpt>
      <trkpt lat="47.52533" lon="-1.38594">
        <ele>1</ele>
        <time>2020-01-11T16:29:34Z</time>
      </trkpt>
      <trkpt lat="47.52514" lon="-1.38583">
        <ele>2</ele>
        <time>2020-01-11T16:29:40Z</time>
      </trkpt>
      <trkpt lat="47.52498" lon="-1.38572">
        <ele>2</ele>
        <time>2020-01-11T16:29:45Z</time>
      </trkpt>
      <trkpt lat="47.52493" lon="-1.38568">
        <ele>2</ele>
        <time>2020-01-11T16:29:47Z</time>
      </trkpt>
      <trkpt lat="47.52478" lon="-1.3855">
        <ele>3</ele>
        <time>2020-01-11T16:29:52Z</time>
      </trkpt>
      <trkpt lat="47.52465" lon="-1.38531">
        <ele>3</ele>
        <time>2020-01-11T16:29:57Z</time>
      </trkpt>
      <trkpt lat="47.52459" lon="-1.38517">
        <ele>3</ele>
        <time>2020-01-11T16:30:01Z</time>
      </trkpt>
      <trkpt lat="47.52448" lon="-1.38482">
        <ele>2</ele>
        <time>2020-01-11T16:30:08Z</time>
      </trkpt>
      <trkpt lat="47.52444" lon="-1.38455">
        <ele>3</ele>
        <time>2020-01-11T16:30:14Z</time>
      </trkpt>
      <trkpt lat="47.52442" lon="-1.38436">
        <ele>3</ele>
        <time>2020-01-11T16:30:19Z</time>
      </trkpt>
      <trkpt lat="47.52441" lon="-1.38428">
        <ele>3</ele>
        <time>2020-01-11T16:30:21Z</time>
      </trkpt>
      <trkpt lat="47.52439" lon="-1.38402">
        <ele>4</ele>
        <time>2020-01-11T16:30:27Z</time>
      </trkpt>
      <trkpt lat="47.52437" lon="-1.38367">
        <ele>4</ele>
        <time>2020-01-11T16:30:35Z</time>
      </trkpt>
      <trkpt lat="47.52436" lon="-1.38344">
        <ele>5</ele>
        <time>2020-01-11T16:30:40Z</time>
      </trkpt>
      <trkpt lat="47.52435" lon="-1.38309">
        <ele>5</ele>
        <time>2020-01-11T16:30:47Z</time>
      </trkpt>
      <trkpt lat="47.52434" lon="-1.38297">
        <ele>5</ele>
        <time>2020-01-11T16:30:50Z</time>
      </trkpt>
      <trkpt lat="47.52434" lon="-1.38282">
        <ele>5</ele>
        <time>2020-01-11T16:30:54Z</time>
      </trkpt>
      <trkpt lat="47.52432" lon="-1.38251">
        <ele>6</ele>
        <time>2020-01-11T16:31:01Z</time>
      </trkpt>
      <trkpt lat="47.52431" lon="-1.38231">
        <ele>6</ele>
        <time>2020-01-11T16:31:07Z</time>
      </trkpt>
      <trkpt lat="47.52432" lon="-1.3821">
        <ele>6</ele>
        <time>2020-01-11T16:31:15Z</time>
      </trkpt>
      <trkpt lat="47.52441" lon="-1.38206">
        <ele>5</ele>
        <time>2020-01-11T16:31:20Z</time>
      </trkpt>
      <trkpt lat="47.52447" lon="-1.38201">
        <ele>5</ele>
        <time>2020-01-11T16:32:26Z</time>
      </trkpt>
      <trkpt lat="47.5245" lon="-1.382">
        <ele>5</ele>
        <time>2020-01-11T16:32:27Z</time>
      </trkpt>
      <trkpt lat="47.52474" lon="-1.38195">
        <ele>5</ele>
        <time>2020-01-11T16:32:34Z</time>
      </trkpt>
      <trkpt lat="47.52502" lon="-1.38189">
        <ele>5</ele>
        <time>2020-01-11T16:32:41Z</time>
      </trkpt>
      <trkpt lat="47.52538" lon="-1.38177">
        <ele>5</ele>
        <time>2020-01-11T16:32:50Z</time>
      </trkpt>
      <trkpt lat="47.52563" lon="-1.38175">
        <ele>5</ele>
        <time>2020-01-11T16:32:56Z</time>
      </trkpt>
      <trkpt lat="47.52568" lon="-1.38177">
        <ele>5</ele>
        <time>2020-01-11T16:32:57Z</time>
      </trkpt>
      <trkpt lat="47.52586" lon="-1.38191">
        <ele>5</ele>
        <time>2020-01-11T16:33:01Z</time>
      </trkpt>
      <trkpt lat="47.52596" lon="-1.38202">
        <ele>5</ele>
        <time>2020-01-11T16:33:03Z</time>
      </trkpt>
      <trkpt lat="47.52607" lon="-1.38214">
        <ele>4</ele>
        <time>2020-01-11T16:33:05Z</time>
      </trkpt>
      <trkpt lat="47.52612" lon="-1.38221">
        <ele>4</ele>
        <time>2020-01-11T16:33:06Z</time>
      </trkpt>
      <trkpt lat="47.52625" lon="-1.38232">
        <ele>3</ele>
        <time>2020-01-11T16:33:08Z</time>
      </trkpt>
      <trkpt lat="47.52632" lon="-1.38237">
        <ele>3</ele>
        <time>2020-01-11T16:33:09Z</time>
      </trkpt>
      <trkpt lat="47.52646" lon="-1.38244">
        <ele>2</ele>
        <time>2020-01-11T16:33:11Z</time>
      </trkpt>
      <trkpt lat="47.52668" lon="-1.3825">
        <ele>1</ele>
        <time>2020-01-11T16:33:14Z</time>
      </trkpt>
      <trkpt lat="47.52694" lon="-1.38259">
        <ele>33</ele>
        <time>2020-01-11T16:33:18Z</time>
      </trkpt>
      <trkpt lat="47.52699" lon="-1.38262">
        <ele>33.3</ele>
        <time>2020-01-11T16:33:19Z</time>
      </trkpt>
      <trkpt lat="47.52704" lon="-1.38265">
        <ele>33.5</ele>
        <time>2020-01-11T16:33:20Z</time>
      </trkpt>
      <trkpt lat="47.52712" lon="-1.38272">
        <ele>34.1</ele>
        <time>2020-01-11T16:33:22Z</time>
      </trkpt>
      <trkpt lat="47.5273" lon="-1.38293">
        <ele>1</ele>
        <time>2020-01-11T16:33:28Z</time>
      </trkpt>
      <trkpt lat="47.52732" lon="-1.38297">
        <ele>1</ele>
        <time>2020-01-11T16:33:29Z</time>
      </trkpt>
      <trkpt lat="47.52738" lon="-1.38306">
        <ele>2</ele>
        <time>2020-01-11T16:33:32Z</time>
      </trkpt>
      <trkpt lat="47.52751" lon="-1.38326">
        <ele>3</ele>
        <time>2020-01-11T16:33:38Z</time>
      </trkpt>
      <trkpt lat="47.52762" lon="-1.38345">
        <ele>4</ele>
        <time>2020-01-11T16:33:44Z</time>
      </trkpt>
      <trkpt lat="47.52764" lon="-1.38348">
        <ele>4</ele>
        <time>2020-01-11T16:33:45Z</time>
      </trkpt>
      <trkpt lat="47.52776" lon="-1.38364">
        <ele>5</ele>
        <time>2020-01-11T16:33:52Z</time>
      </trkpt>
      <trkpt lat="47.52777" lon="-1.38366">
        <ele>5</ele>
        <time>2020-01-11T16:33:53Z</time>
      </trkpt>
      <trkpt lat="47.5278" lon="-1.38371">
        <ele>5</ele>
        <time>2020-01-11T16:33:56Z</time>
      </trkpt>
      <trkpt lat="47.52777" lon="-1.38376">
        <ele>5</ele>
        <time>2020-01-11T16:34:24Z</time>
      </trkpt>
      <trkpt lat="47.52776" lon="-1.38378">
        <ele>5</ele>
        <time>2020-01-11T16:34:26Z</time>
      </trkpt>
      <trkpt lat="47.52765" lon="-1.38396">
        <ele>5</ele>
        <time>2020-01-11T16:34:31Z</time>
      </trkpt>
      <trkpt lat="47.52761" lon="-1.38418">
        <ele>5</ele>
        <time>2020-01-11T16:34:36Z</time>
      </trkpt>
      <trkpt lat="47.52762" lon="-1.38441">
        <ele>5</ele>
        <time>2020-01-11T16:34:41Z</time>
      </trkpt>
      <trkpt lat="47.52768" lon="-1.38473">
        <ele>5</ele>
        <time>2020-01-11T16:34:47Z</time>
      </trkpt>
      <trkpt lat="47.52773" lon="-1.3849">
        <ele>5</ele>
        <time>2020-01-11T16:34:52Z</time>
      </trkpt>
      <trkpt lat="47.52776" lon="-1.38513">
        <ele>6</ele>
        <time>2020-01-11T16:34:59Z</time>
      </trkpt>
      <trkpt lat="47.5278" lon="-1.38525">
        <ele>6</ele>
        <time>2020-01-11T16:35:04Z</time>
      </trkpt>
      <trkpt lat="47.52781" lon="-1.38531">
        <ele>6</ele>
        <time>2020-01-11T16:35:06Z</time>
      </trkpt>
      <trkpt lat="47.52784" lon="-1.38553">
        <ele>7</ele>
        <time>2020-01-11T16:35:13Z</time>
      </trkpt>
      <trkpt lat="47.52787" lon="-1.38584">
        <ele>7</ele>
        <time>2020-01-11T16:35:21Z</time>
      </trkpt>
      <trkpt lat="47.52786" lon="-1.38592">
        <ele>7</ele>
        <time>2020-01-11T16:35:23Z</time>
      </trkpt>
      <trkpt lat="47.52787" lon="-1.38613">
        <ele>7</ele>
        <time>2020-01-11T16:35:29Z</time>
      </trkpt>
      <trkpt lat="47.5279" lon="-1.38635">
        <ele>8</ele>
        <time>2020-01-11T16:35:36Z</time>
      </trkpt>
      <trkpt lat="47.52795" lon="-1.38654">
        <ele>8</ele>
        <time>2020-01-11T16:35:44Z</time>
      </trkpt>
      <trkpt lat="47.52796" lon="-1.38659">
        <ele>8</ele>
        <time>2020-01-11T16:35:46Z</time>
      </trkpt>
      <trkpt lat="47.52801" lon="-1.38673">
        <ele>9</ele>
        <time>2020-01-11T16:35:52Z</time>
      </trkpt>
      <trkpt lat="47.52811" lon="-1.38685">
        <ele>9</ele>
        <time>2020-01-11T16:35:59Z</time>
      </trkpt>
      <trkpt lat="47.52812" lon="-1.38687">
        <ele>9</ele>
        <time>2020-01-11T16:36:00Z</time>
      </trkpt>
      <trkpt lat="47.5282" lon="-1.38693">
        <ele>11</ele>
        <time>2020-01-11T16:36:05Z</time>
      </trkpt>
      <trkpt lat="47.52821" lon="-1.38694">
        <ele>11</ele>
        <time>2020-01-11T16:36:06Z</time>
      </trkpt>
      <trkpt lat="47.52829" lon="-1.38699">
        <ele>12</ele>
        <time>2020-01-11T16:36:11Z</time>
      </trkpt>
      <trkpt lat="47.52835" lon="-1.38705">
        <ele>12</ele>
        <time>2020-01-11T16:36:15Z</time>
      </trkpt>
      <trkpt lat="47.52844" lon="-1.38716">
        <ele>13</ele>
        <time>2020-01-11T16:36:22Z</time>
      </trkpt>
      <trkpt lat="47.52846" lon="-1.38717">
        <ele>13</ele>
        <time>2020-01-11T16:36:23Z</time>
      </trkpt>
      <trkpt lat="47.52855" lon="-1.38729">
        <ele>13</ele>
        <time>2020-01-11T16:36:31Z</time>
      </trkpt>
      <trkpt lat="47.52862" lon="-1.3874">
        <ele>13</ele>
        <time>2020-01-11T16:36:38Z</time>
      </trkpt>
      <trkpt lat="47.52884" lon="-1.38779">
        <ele>14</ele>
        <time>2020-01-11T16:41:18Z</time>
      </trkpt>
      <trkpt lat="47.52885" lon="-1.38782">
        <ele>14</ele>
        <time>2020-01-11T16:41:19Z</time>
      </trkpt>
      <trkpt lat="47.52895" lon="-1.38804">
        <ele>14</ele>
        <time>2020-01-11T16:41:26Z</time>
      </trkpt>
      <trkpt lat="47.52903" lon="-1.38824">
        <ele>14</ele>
        <time>2020-01-11T16:41:32Z</time>
      </trkpt>
      <trkpt lat="47.52911" lon="-1.38844">
        <ele>15</ele>
        <time>2020-01-11T16:41:39Z</time>
      </trkpt>
      <trkpt lat="47.52919" lon="-1.38871">
        <ele>15</ele>
        <time>2020-01-11T16:41:46Z</time>
      </trkpt>
      <trkpt lat="47.52928" lon="-1.38899">
        <ele>15</ele>
        <time>2020-01-11T16:41:53Z</time>
      </trkpt>
      <trkpt lat="47.52931" lon="-1.38911">
        <ele>15</ele>
        <time>2020-01-11T16:41:56Z</time>
      </trkpt>
      <trkpt lat="47.52936" lon="-1.38928">
        <ele>16</ele>
        <time>2020-01-11T16:42:01Z</time>
      </trkpt>
      <trkpt lat="47.52937" lon="-1.38932">
        <ele>16</ele>
        <time>2020-01-11T16:42:02Z</time>
      </trkpt>
      <trkpt lat="47.52941" lon="-1.38953">
        <ele>17</ele>
        <time>2020-01-11T16:42:08Z</time>
      </trkpt>
      <trkpt lat="47.52942" lon="-1.38978">
        <ele>18</ele>
        <time>2020-01-11T16:42:15Z</time>
      </trkpt>
      <trkpt lat="47.52942" lon="-1.38982">
        <ele>18</ele>
        <time>2020-01-11T16:42:16Z</time>
      </trkpt>
      <trkpt lat="47.52943" lon="-1.39005">
        <ele>19</ele>
        <time>2020-01-11T16:42:22Z</time>
      </trkpt>
      <trkpt lat="47.52945" lon="-1.39012">
        <ele>20</ele>
        <time>2020-01-11T16:42:24Z</time>
      </trkpt>
      <trkpt lat="47.52948" lon="-1.39028">
        <ele>20</ele>
        <time>2020-01-11T16:42:29Z</time>
      </trkpt>
      <trkpt lat="47.52949" lon="-1.39038">
        <ele>21</ele>
        <time>2020-01-11T16:42:32Z</time>
      </trkpt>
      <trkpt lat="47.52951" lon="-1.39054">
        <ele>21</ele>
        <time>2020-01-11T16:42:37Z</time>
      </trkpt>
      <trkpt lat="47.52952" lon="-1.39066">
        <ele>22</ele>
        <time>2020-01-11T16:42:41Z</time>
      </trkpt>
      <trkpt lat="47.52952" lon="-1.39072">
        <ele>22</ele>
        <time>2020-01-11T16:42:44Z</time>
      </trkpt>
      <trkpt lat="47.52953" lon="-1.3908">
        <ele>22</ele>
        <time>2020-01-11T16:44:40Z</time>
      </trkpt>
      <trkpt lat="47.52953" lon="-1.39086">
        <ele>22</ele>
        <time>2020-01-11T16:44:42Z</time>
      </trkpt>
      <trkpt lat="47.52955" lon="-1.39109">
        <ele>23</ele>
        <time>2020-01-11T16:44:49Z</time>
      </trkpt>
      <trkpt lat="47.52956" lon="-1.39116">
        <ele>23</ele>
        <time>2020-01-11T16:44:51Z</time>
      </trkpt>
      <trkpt lat="47.52955" lon="-1.39134">
        <ele>23</ele>
        <time>2020-01-11T16:44:56Z</time>
      </trkpt>
      <trkpt lat="47.52955" lon="-1.39159">
        <ele>24</ele>
        <time>2020-01-11T16:45:02Z</time>
      </trkpt>
      <trkpt lat="47.52954" lon="-1.39181">
        <ele>24</ele>
        <time>2020-01-11T16:45:08Z</time>
      </trkpt>
      <trkpt lat="47.5295" lon="-1.39219">
        <ele>25</ele>
        <time>2020-01-11T16:45:16Z</time>
      </trkpt>
      <trkpt lat="47.52947" lon="-1.3925">
        <ele>25</ele>
        <time>2020-01-11T16:45:23Z</time>
      </trkpt>
      <trkpt lat="47.52947" lon="-1.39255">
        <ele>25</ele>
        <time>2020-01-11T16:45:24Z</time>
      </trkpt>
      <trkpt lat="47.52947" lon="-1.39289">
        <ele>25</ele>
        <time>2020-01-11T16:45:31Z</time>
      </trkpt>
      <trkpt lat="47.52943" lon="-1.39316">
        <ele>24</ele>
        <time>2020-01-11T16:45:37Z</time>
      </trkpt>
      <trkpt lat="47.5294" lon="-1.39342">
        <ele>24</ele>
        <time>2020-01-11T16:45:43Z</time>
      </trkpt>
      <trkpt lat="47.5294" lon="-1.39347">
        <ele>24</ele>
        <time>2020-01-11T16:45:44Z</time>
      </trkpt>
      <trkpt lat="47.52934" lon="-1.39375">
        <ele>23</ele>
        <time>2020-01-11T16:45:51Z</time>
      </trkpt>
      <trkpt lat="47.52936" lon="-1.39381">
        <ele>23</ele>
        <time>2020-01-11T16:46:44Z</time>
      </trkpt>
      <trkpt lat="47.52937" lon="-1.39382">
        <ele>23</ele>
        <time>2020-01-11T16:46:45Z</time>
      </trkpt>
      <trkpt lat="47.52947" lon="-1.39383">
        <ele>23</ele>
        <time>2020-01-11T16:46:50Z</time>
      </trkpt>
      <trkpt lat="47.5295" lon="-1.39385">
        <ele>23</ele>
        <time>2020-01-11T16:46:52Z</time>
      </trkpt>
      <trkpt lat="47.52952" lon="-1.3939">
        <ele>22</ele>
        <time>2020-01-11T16:46:55Z</time>
      </trkpt>
      <trkpt lat="47.52957" lon="-1.39404">
        <ele>22</ele>
        <time>2020-01-11T16:47:00Z</time>
      </trkpt>
      <trkpt lat="47.52959" lon="-1.39407">
        <ele>22</ele>
        <time>2020-01-11T16:47:02Z</time>
      </trkpt>
      <trkpt lat="47.52962" lon="-1.39412">
        <ele>22</ele>
        <time>2020-01-11T16:47:06Z</time>
      </trkpt>
      <trkpt lat="47.52985" lon="-1.39447">
        <ele>23</ele>
        <time>2020-01-11T16:47:29Z</time>
      </trkpt>
      <trkpt lat="47.52989" lon="-1.39453">
        <ele>23</ele>
        <time>2020-01-11T16:47:32Z</time>
      </trkpt>
      <trkpt lat="47.52999" lon="-1.39466">
        <ele>24</ele>
        <time>2020-01-11T16:47:39Z</time>
      </trkpt>
      <trkpt lat="47.53004" lon="-1.39473">
        <ele>24</ele>
        <time>2020-01-11T16:47:41Z</time>
      </trkpt>
      <trkpt lat="47.53019" lon="-1.39494">
        <ele>24</ele>
        <time>2020-01-11T16:47:48Z</time>
      </trkpt>
      <trkpt lat="47.53032" lon="-1.39515">
        <ele>24</ele>
        <time>2020-01-11T16:47:55Z</time>
      </trkpt>
      <trkpt lat="47.53044" lon="-1.39532">
        <ele>25</ele>
        <time>2020-01-11T16:48:02Z</time>
      </trkpt>
      <trkpt lat="47.53052" lon="-1.39543">
        <ele>25</ele>
        <time>2020-01-11T16:48:07Z</time>
      </trkpt>
      <trkpt lat="47.53052" lon="-1.39547">
        <ele>25</ele>
        <time>2020-01-11T16:48:08Z</time>
      </trkpt>
      <trkpt lat="47.53053" lon="-1.39549">
        <ele>25</ele>
        <time>2020-01-11T16:48:09Z</time>
      </trkpt>
      <trkpt lat="47.53051" lon="-1.39559">
        <ele>25</ele>
        <time>2020-01-11T16:48:12Z</time>
      </trkpt>
      <trkpt lat="47.53049" lon="-1.39568">
        <ele>25</ele>
        <time>2020-01-11T16:48:14Z</time>
      </trkpt>
      <trkpt lat="47.5304" lon="-1.39594">
        <ele>25</ele>
        <time>2020-01-11T16:48:22Z</time>
      </trkpt>
      <trkpt lat="47.53031" lon="-1.39612">
        <ele>25</ele>
        <time>2020-01-11T16:48:28Z</time>
      </trkpt>
      <trkpt lat="47.53019" lon="-1.39629">
        <ele>24</ele>
        <time>2020-01-11T16:48:34Z</time>
      </trkpt>
      <trkpt lat="47.53011" lon="-1.39646">
        <ele>25</ele>
        <time>2020-01-11T16:48:39Z</time>
      </trkpt>
      <trkpt lat="47.52999" lon="-1.39664">
        <ele>24</ele>
        <time>2020-01-11T16:48:45Z</time>
      </trkpt>
      <trkpt lat="47.52988" lon="-1.39679">
        <ele>25</ele>
        <time>2020-01-11T16:48:51Z</time>
      </trkpt>
      <trkpt lat="47.52978" lon="-1.39697">
        <ele>25</ele>
        <time>2020-01-11T16:48:57Z</time>
      </trkpt>
      <trkpt lat="47.52969" lon="-1.39725">
        <ele>25</ele>
        <time>2020-01-11T16:50:02Z</time>
      </trkpt>
      <trkpt lat="47.52973" lon="-1.39726">
        <ele>25</ele>
        <time>2020-01-11T16:50:04Z</time>
      </trkpt>
      <trkpt lat="47.52985" lon="-1.39733">
        <ele>25</ele>
        <time>2020-01-11T16:50:10Z</time>
      </trkpt>
      <trkpt lat="47.52986" lon="-1.39735">
        <ele>25</ele>
        <time>2020-01-11T16:50:11Z</time>
      </trkpt>
      <trkpt lat="47.52989" lon="-1.39749">
        <ele>25</ele>
        <time>2020-01-11T16:50:15Z</time>
      </trkpt>
      <trkpt lat="47.52993" lon="-1.39774">
        <ele>25</ele>
        <time>2020-01-11T16:50:22Z</time>
      </trkpt>
      <trkpt lat="47.52998" lon="-1.39802">
        <ele>24</ele>
        <time>2020-01-11T16:50:28Z</time>
      </trkpt>
      <trkpt lat="47.53001" lon="-1.3982">
        <ele>24</ele>
        <time>2020-01-11T16:50:32Z</time>
      </trkpt>
      <trkpt lat="47.53002" lon="-1.39828">
        <ele>23</ele>
        <time>2020-01-11T16:50:34Z</time>
      </trkpt>
      <trkpt lat="47.53006" lon="-1.39854">
        <ele>23</ele>
        <time>2020-01-11T16:50:40Z</time>
      </trkpt>
      <trkpt lat="47.53007" lon="-1.39857">
        <ele>23</ele>
        <time>2020-01-11T16:50:41Z</time>
      </trkpt>
      <trkpt lat="47.53011" lon="-1.39885">
        <ele>22</ele>
        <time>2020-01-11T16:50:47Z</time>
      </trkpt>
      <trkpt lat="47.53017" lon="-1.39922">
        <ele>20</ele>
        <time>2020-01-11T16:50:53Z</time>
      </trkpt>
      <trkpt lat="47.53018" lon="-1.39928">
        <ele>20</ele>
        <time>2020-01-11T16:50:54Z</time>
      </trkpt>
      <trkpt lat="47.5302" lon="-1.39945">
        <ele>19</ele>
        <time>2020-01-11T16:50:57Z</time>
      </trkpt>
      <trkpt lat="47.53022" lon="-1.39958">
        <ele>19</ele>
        <time>2020-01-11T16:51:00Z</time>
      </trkpt>
      <trkpt lat="47.53021" lon="-1.39971">
        <ele>19</ele>
        <time>2020-01-11T16:51:05Z</time>
      </trkpt>
      <trkpt lat="47.53024" lon="-1.39986">
        <ele>20</ele>
        <time>2020-01-11T16:51:10Z</time>
      </trkpt>
      <trkpt lat="47.53033" lon="-1.40032">
        <ele>21</ele>
        <time>2020-01-11T16:52:18Z</time>
      </trkpt>
      <trkpt lat="47.53033" lon="-1.40035">
        <ele>21</ele>
        <time>2020-01-11T16:52:19Z</time>
      </trkpt>
      <trkpt lat="47.53036" lon="-1.40061">
        <ele>21</ele>
        <time>2020-01-11T16:52:28Z</time>
      </trkpt>
      <trkpt lat="47.53038" lon="-1.40075">
        <ele>22</ele>
        <time>2020-01-11T16:52:34Z</time>
      </trkpt>
      <trkpt lat="47.53039" lon="-1.40079">
        <ele>22</ele>
        <time>2020-01-11T16:52:35Z</time>
      </trkpt>
      <trkpt lat="47.53042" lon="-1.40104">
        <ele>22</ele>
        <time>2020-01-11T16:52:42Z</time>
      </trkpt>
      <trkpt lat="47.53045" lon="-1.40119">
        <ele>23</ele>
        <time>2020-01-11T16:52:46Z</time>
      </trkpt>
      <trkpt lat="47.53047" lon="-1.40134">
        <ele>23</ele>
        <time>2020-01-11T16:52:50Z</time>
      </trkpt>
      <trkpt lat="47.53056" lon="-1.40163">
        <ele>24</ele>
        <time>2020-01-11T16:52:59Z</time>
      </trkpt>
      <trkpt lat="47.53058" lon="-1.40164">
        <ele>24</ele>
        <time>2020-01-11T16:53:00Z</time>
      </trkpt>
      <trkpt lat="47.53062" lon="-1.40167">
        <ele>24</ele>
        <time>2020-01-11T16:53:02Z</time>
      </trkpt>
      <trkpt lat="47.5307" lon="-1.40172">
        <ele>24</ele>
        <time>2020-01-11T16:53:06Z</time>
      </trkpt>
      <trkpt lat="47.53088" lon="-1.40184">
        <ele>24</ele>
        <time>2020-01-11T16:53:14Z</time>
      </trkpt>
      <trkpt lat="47.53107" lon="-1.40196">
        <ele>25</ele>
        <time>2020-01-11T16:53:21Z</time>
      </trkpt>
      <trkpt lat="47.53126" lon="-1.4021">
        <ele>25</ele>
        <time>2020-01-11T16:53:28Z</time>
      </trkpt>
      <trkpt lat="47.53141" lon="-1.4022">
        <ele>25</ele>
        <time>2020-01-11T16:53:33Z</time>
      </trkpt>
      <trkpt lat="47.5315" lon="-1.40228">
        <ele>25</ele>
        <time>2020-01-11T16:53:37Z</time>
      </trkpt>
      <trkpt lat="47.53161" lon="-1.40235">
        <ele>25</ele>
        <time>2020-01-11T16:53:41Z</time>
      </trkpt>
      <trkpt lat="47.53179" lon="-1.40249">
        <ele>25</ele>
        <time>2020-01-11T16:53:49Z</time>
      </trkpt>
      <trkpt lat="47.53192" lon="-1.40257">
        <ele>25</ele>
        <time>2020-01-11T16:53:56Z</time>
      </trkpt>
      <trkpt lat="47.53199" lon="-1.40288">
        <ele>25</ele>
        <time>2020-01-11T16:54:45Z</time>
      </trkpt>
      <trkpt lat="47.53198" lon="-1.40294">
        <ele>25</ele>
        <time>2020-01-11T16:54:47Z</time>
      </trkpt>
      <trkpt lat="47.53196" lon="-1.40298">
        <ele>25</ele>
        <time>2020-01-11T16:54:49Z</time>
      </trkpt>
      <trkpt lat="47.53194" lon="-1.40305">
        <ele>25</ele>
        <time>2020-01-11T16:54:52Z</time>
      </trkpt>
      <trkpt lat="47.53189" lon="-1.40328">
        <ele>25</ele>
        <time>2020-01-11T16:54:58Z</time>
      </trkpt>
      <trkpt lat="47.53183" lon="-1.4036">
        <ele>25</ele>
        <time>2020-01-11T16:55:06Z</time>
      </trkpt>
      <trkpt lat="47.53178" lon="-1.40384">
        <ele>25</ele>
        <time>2020-01-11T16:55:13Z</time>
      </trkpt>
      <trkpt lat="47.53174" lon="-1.40406">
        <ele>25</ele>
        <time>2020-01-11T16:55:18Z</time>
      </trkpt>
      <trkpt lat="47.53168" lon="-1.40431">
        <ele>25</ele>
        <time>2020-01-11T16:55:24Z</time>
      </trkpt>
      <trkpt lat="47.53159" lon="-1.40459">
        <ele>25</ele>
        <time>2020-01-11T16:55:31Z</time>
      </trkpt>
      <trkpt lat="47.53153" lon="-1.40489">
        <ele>25</ele>
        <time>2020-01-11T16:55:38Z</time>
      </trkpt>
      <trkpt lat="47.53148" lon="-1.40514">
        <ele>24</ele>
        <time>2020-01-11T16:55:44Z</time>
      </trkpt>
      <trkpt lat="47.53143" lon="-1.40543">
        <ele>24</ele>
        <time>2020-01-11T16:55:51Z</time>
      </trkpt>
      <trkpt lat="47.53138" lon="-1.40566">
        <ele>24</ele>
        <time>2020-01-11T16:55:57Z</time>
      </trkpt>
      <trkpt lat="47.53133" lon="-1.40581">
        <ele>24</ele>
        <time>2020-01-11T16:56:03Z</time>
      </trkpt>
      <trkpt lat="47.53131" lon="-1.40587">
        <ele>24</ele>
        <time>2020-01-11T16:56:05Z</time>
      </trkpt>
      <trkpt lat="47.53127" lon="-1.40602">
        <ele>24</ele>
        <time>2020-01-11T16:56:10Z</time>
      </trkpt>
      <trkpt lat="47.53125" lon="-1.40629">
        <ele>23</ele>
        <time>2020-01-11T16:57:24Z</time>
      </trkpt>
      <trkpt lat="47.53131" lon="-1.40658">
        <ele>23</ele>
        <time>2020-01-11T16:57:30Z</time>
      </trkpt>
      <trkpt lat="47.53132" lon="-1.4068">
        <ele>24</ele>
        <time>2020-01-11T16:57:36Z</time>
      </trkpt>
      <trkpt lat="47.53133" lon="-1.40698">
        <ele>24</ele>
        <time>2020-01-11T16:57:43Z</time>
      </trkpt>
      <trkpt lat="47.53136" lon="-1.40718">
        <ele>24</ele>
        <time>2020-01-11T16:57:49Z</time>
      </trkpt>
      <trkpt lat="47.53138" lon="-1.40746">
        <ele>24</ele>
        <time>2020-01-11T16:57:56Z</time>
      </trkpt>
      <trkpt lat="47.53142" lon="-1.40763">
        <ele>25</ele>
        <time>2020-01-11T16:58:02Z</time>
      </trkpt>
      <trkpt lat="47.53142" lon="-1.40765">
        <ele>25</ele>
        <time>2020-01-11T16:58:03Z</time>
      </trkpt>
      <trkpt lat="47.53145" lon="-1.40788">
        <ele>26</ele>
        <time>2020-01-11T16:58:10Z</time>
      </trkpt>
      <trkpt lat="47.53146" lon="-1.40798">
        <ele>26</ele>
        <time>2020-01-11T16:58:14Z</time>
      </trkpt>
      <trkpt lat="47.53146" lon="-1.40804">
        <ele>26</ele>
        <time>2020-01-11T16:58:24Z</time>
      </trkpt>
      <trkpt lat="47.53148" lon="-1.40815">
        <ele>26</ele>
        <time>2020-01-11T16:58:28Z</time>
      </trkpt>
      <trkpt lat="47.53157" lon="-1.40872">
        <ele>27</ele>
        <time>2020-01-11T16:58:48Z</time>
      </trkpt>
      <trkpt lat="47.53157" lon="-1.40875">
        <ele>27</ele>
        <time>2020-01-11T16:58:49Z</time>
      </trkpt>
      <trkpt lat="47.53159" lon="-1.40896">
        <ele>27</ele>
        <time>2020-01-11T16:59:06Z</time>
      </trkpt>
      <trkpt lat="47.53159" lon="-1.409">
        <ele>27</ele>
        <time>2020-01-11T16:59:08Z</time>
      </trkpt>
      <trkpt lat="47.53159" lon="-1.40919">
        <ele>27</ele>
        <time>2020-01-11T16:59:14Z</time>
      </trkpt>
      <trkpt lat="47.53162" lon="-1.40938">
        <ele>28</ele>
        <time>2020-01-11T16:59:20Z</time>
      </trkpt>
      <trkpt lat="47.53166" lon="-1.40955">
        <ele>28</ele>
        <time>2020-01-11T16:59:25Z</time>
      </trkpt>
      <trkpt lat="47.53171" lon="-1.40978">
        <ele>28</ele>
        <time>2020-01-11T16:59:31Z</time>
      </trkpt>
      <trkpt lat="47.5318" lon="-1.41023">
        <ele>29</ele>
        <time>2020-01-11T16:59:52Z</time>
      </trkpt>
      <trkpt lat="47.53181" lon="-1.41044">
        <ele>30</ele>
        <time>2020-01-11T16:59:58Z</time>
      </trkpt>
      <trkpt lat="47.53189" lon="-1.41071">
        <ele>30</ele>
        <time>2020-01-11T17:00:04Z</time>
      </trkpt>
      <trkpt lat="47.53195" lon="-1.41098">
        <ele>30</ele>
        <time>2020-01-11T17:00:12Z</time>
      </trkpt>
      <trkpt lat="47.53196" lon="-1.41117">
        <ele>31</ele>
        <time>2020-01-11T17:00:19Z</time>
      </trkpt>
      <trkpt lat="47.53198" lon="-1.41132">
        <ele>31</ele>
        <time>2020-01-11T17:00:24Z</time>
      </trkpt>
      <trkpt lat="47.53198" lon="-1.41136">
        <ele>31</ele>
        <time>2020-01-11T17:00:25Z</time>
      </trkpt>
      <trkpt lat="47.532" lon="-1.41156">
        <ele>31</ele>
        <time>2020-01-11T17:00:30Z</time>
      </trkpt>
      <trkpt lat="47.532" lon="-1.4116">
        <ele>31</ele>
        <time>2020-01-11T17:00:31Z</time>
      </trkpt>
      <trkpt lat="47.53203" lon="-1.4118">
        <ele>32</ele>
        <time>2020-01-11T17:00:37Z</time>
      </trkpt>
      <trkpt lat="47.53205" lon="-1.41197">
        <ele>32</ele>
        <time>2020-01-11T17:00:43Z</time>
      </trkpt>
      <trkpt lat="47.53207" lon="-1.4121">
        <ele>32</ele>
        <time>2020-01-11T17:00:48Z</time>
      </trkpt>
      <trkpt lat="47.53206" lon="-1.41212">
        <ele>32</ele>
        <time>2020-01-11T17:00:49Z</time>
      </trkpt>
      <trkpt lat="47.53201" lon="-1.4122">
        <ele>33</ele>
        <time>2020-01-11T17:00:53Z</time>
      </trkpt>
      <trkpt lat="47.532" lon="-1.41224">
        <ele>33</ele>
        <time>2020-01-11T17:00:55Z</time>
      </trkpt>
      <trkpt lat="47.53207" lon="-1.4125">
        <ele>33</ele>
        <time>2020-01-11T17:03:34Z</time>
      </trkpt>
      <trkpt lat="47.53208" lon="-1.41254">
        <ele>33</ele>
        <time>2020-01-11T17:03:35Z</time>
      </trkpt>
      <trkpt lat="47.53212" lon="-1.41268">
        <ele>33</ele>
        <time>2020-01-11T17:03:40Z</time>
      </trkpt>
      <trkpt lat="47.53212" lon="-1.41271">
        <ele>33</ele>
        <time>2020-01-11T17:03:41Z</time>
      </trkpt>
      <trkpt lat="47.53217" lon="-1.41279">
        <ele>34</ele>
        <time>2020-01-11T17:03:45Z</time>
      </trkpt>
      <trkpt lat="47.53221" lon="-1.41286">
        <ele>34</ele>
        <time>2020-01-11T17:03:48Z</time>
      </trkpt>
      <trkpt lat="47.53222" lon="-1.41297">
        <ele>34</ele>
        <time>2020-01-11T17:03:52Z</time>
      </trkpt>
      <trkpt lat="47.53223" lon="-1.41301">
        <ele>34</ele>
        <time>2020-01-11T17:03:54Z</time>
      </trkpt>
      <trkpt lat="47.53225" lon="-1.41322">
        <ele>34</ele>
        <time>2020-01-11T17:06:03Z</time>
      </trkpt>
      <trkpt lat="47.53228" lon="-1.41346">
        <ele>33</ele>
        <time>2020-01-11T17:06:09Z</time>
      </trkpt>
      <trkpt lat="47.53231" lon="-1.4137">
        <ele>33</ele>
        <time>2020-01-11T17:06:15Z</time>
      </trkpt>
      <trkpt lat="47.53231" lon="-1.41379">
        <ele>32</ele>
        <time>2020-01-11T17:06:18Z</time>
      </trkpt>
      <trkpt lat="47.5323" lon="-1.41382">
        <ele>32</ele>
        <time>2020-01-11T17:06:19Z</time>
      </trkpt>
      <trkpt lat="47.53229" lon="-1.41386">
        <ele>32</ele>
        <time>2020-01-11T17:06:20Z</time>
      </trkpt>
      <trkpt lat="47.53217" lon="-1.414">
        <ele>32</ele>
        <time>2020-01-11T17:06:25Z</time>
      </trkpt>
      <trkpt lat="47.53195" lon="-1.41422">
        <ele>32</ele>
        <time>2020-01-11T17:06:32Z</time>
      </trkpt>
      <trkpt lat="47.53188" lon="-1.41429">
        <ele>31</ele>
        <time>2020-01-11T17:06:34Z</time>
      </trkpt>
      <trkpt lat="47.5317" lon="-1.41446">
        <ele>30</ele>
        <time>2020-01-11T17:06:38Z</time>
      </trkpt>
      <trkpt lat="47.5316" lon="-1.41455">
        <ele>30</ele>
        <time>2020-01-11T17:06:40Z</time>
      </trkpt>
      <trkpt lat="47.53143" lon="-1.41467">
        <ele>29</ele>
        <time>2020-01-11T17:06:43Z</time>
      </trkpt>
      <trkpt lat="47.53138" lon="-1.41471">
        <ele>28</ele>
        <time>2020-01-11T17:06:44Z</time>
      </trkpt>
      <trkpt lat="47.53133" lon="-1.41475">
        <ele>28</ele>
        <time>2020-01-11T17:06:45Z</time>
      </trkpt>
      <trkpt lat="47.53116" lon="-1.41487">
        <ele>26</ele>
        <time>2020-01-11T17:06:48Z</time>
      </trkpt>
      <trkpt lat="47.5311" lon="-1.41491">
        <ele>26</ele>
        <time>2020-01-11T17:06:49Z</time>
      </trkpt>
      <trkpt lat="47.531" lon="-1.41498">
        <ele>25</ele>
        <time>2020-01-11T17:06:51Z</time>
      </trkpt>
      <trkpt lat="47.53087" lon="-1.41507">
        <ele>24</ele>
        <time>2020-01-11T17:06:54Z</time>
      </trkpt>
      <trkpt lat="47.53083" lon="-1.41511">
        <ele>24</ele>
        <time>2020-01-11T17:06:55Z</time>
      </trkpt>
      <trkpt lat="47.5308" lon="-1.41516">
        <ele>23</ele>
        <time>2020-01-11T17:06:56Z</time>
      </trkpt>
      <trkpt lat="47.53077" lon="-1.41521">
        <ele>23</ele>
        <time>2020-01-11T17:06:57Z</time>
      </trkpt>
      <trkpt lat="47.53075" lon="-1.41525">
        <ele>23</ele>
        <time>2020-01-11T17:06:58Z</time>
      </trkpt>
      <trkpt lat="47.53077" lon="-1.41531">
        <ele>22</ele>
        <time>2020-01-11T17:06:59Z</time>
      </trkpt>
      <trkpt lat="47.53079" lon="-1.41536">
        <ele>22</ele>
        <time>2020-01-11T17:07:00Z</time>
      </trkpt>
      <trkpt lat="47.53083" lon="-1.41549">
        <ele>21</ele>
        <time>2020-01-11T17:07:03Z</time>
      </trkpt>
      <trkpt lat="47.53085" lon="-1.41553">
        <ele>21</ele>
        <time>2020-01-11T17:07:04Z</time>
      </trkpt>
      <trkpt lat="47.53093" lon="-1.4158">
        <ele>21</ele>
        <time>2020-01-11T17:07:11Z</time>
      </trkpt>
      <trkpt lat="47.53098" lon="-1.41615">
        <ele>21</ele>
        <time>2020-01-11T17:07:17Z</time>
      </trkpt>
      <trkpt lat="47.53102" lon="-1.41637">
        <ele>21</ele>
        <time>2020-01-11T17:07:20Z</time>
      </trkpt>
      <trkpt lat="47.53109" lon="-1.41666">
        <ele>20</ele>
        <time>2020-01-11T17:07:24Z</time>
      </trkpt>
      <trkpt lat="47.53116" lon="-1.41694">
        <ele>20</ele>
        <time>2020-01-11T17:07:28Z</time>
      </trkpt>
      <trkpt lat="47.53119" lon="-1.41707">
        <ele>19</ele>
        <time>2020-01-11T17:07:30Z</time>
      </trkpt>
      <trkpt lat="47.53123" lon="-1.41724">
        <ele>19</ele>
        <time>2020-01-11T17:07:34Z</time>
      </trkpt>
      <trkpt lat="47.53124" lon="-1.41727">
        <ele>18</ele>
        <time>2020-01-11T17:07:35Z</time>
      </trkpt>
      <trkpt lat="47.53121" lon="-1.4173">
        <ele>17</ele>
        <time>2020-01-11T17:07:56Z</time>
      </trkpt>
      <trkpt lat="47.53116" lon="-1.41729">
        <ele>17</ele>
        <time>2020-01-11T17:07:58Z</time>
      </trkpt>
      <trkpt lat="47.53097" lon="-1.41725">
        <ele>17</ele>
        <time>2020-01-11T17:08:03Z</time>
      </trkpt>
      <trkpt lat="47.53077" lon="-1.41722">
        <ele>16</ele>
        <time>2020-01-11T17:08:08Z</time>
      </trkpt>
      <trkpt lat="47.53059" lon="-1.41732">
        <ele>15</ele>
        <time>2020-01-11T17:08:12Z</time>
      </trkpt>
      <trkpt lat="47.53055" lon="-1.41733">
        <ele>15</ele>
        <time>2020-01-11T17:08:13Z</time>
      </trkpt>
      <trkpt lat="47.5304" lon="-1.41739">
        <ele>14</ele>
        <time>2020-01-11T17:08:17Z</time>
      </trkpt>
      <trkpt lat="47.53036" lon="-1.41741">
        <ele>14</ele>
        <time>2020-01-11T17:08:18Z</time>
      </trkpt>
      <trkpt lat="47.53027" lon="-1.41745">
        <ele>13</ele>
        <time>2020-01-11T17:08:20Z</time>
      </trkpt>
      <trkpt lat="47.53022" lon="-1.41747">
        <ele>13</ele>
        <time>2020-01-11T17:08:21Z</time>
      </trkpt>
      <trkpt lat="47.53017" lon="-1.41751">
        <ele>13</ele>
        <time>2020-01-11T17:08:22Z</time>
      </trkpt>
      <trkpt lat="47.53009" lon="-1.41758">
        <ele>12</ele>
        <time>2020-01-11T17:08:24Z</time>
      </trkpt>
      <trkpt lat="47.53005" lon="-1.41762">
        <ele>12</ele>
        <time>2020-01-11T17:08:25Z</time>
      </trkpt>
      <trkpt lat="47.52991" lon="-1.41772">
        <ele>10</ele>
        <time>2020-01-11T17:08:28Z</time>
      </trkpt>
      <trkpt lat="47.52981" lon="-1.4178">
        <ele>9</ele>
        <time>2020-01-11T17:08:31Z</time>
      </trkpt>
      <trkpt lat="47.52971" lon="-1.41786">
        <ele>8</ele>
        <time>2020-01-11T17:08:34Z</time>
      </trkpt>
      <trkpt lat="47.52968" lon="-1.41786">
        <ele>8</ele>
        <time>2020-01-11T17:08:35Z</time>
      </trkpt>
      <trkpt lat="47.52957" lon="-1.41781">
        <ele>8</ele>
        <time>2020-01-11T17:08:39Z</time>
      </trkpt>
      <trkpt lat="47.52936" lon="-1.41768">
        <ele>9</ele>
        <time>2020-01-11T17:08:47Z</time>
      </trkpt>
      <trkpt lat="47.52929" lon="-1.41767">
        <ele>9</ele>
        <time>2020-01-11T17:08:49Z</time>
      </trkpt>
      <trkpt lat="47.52919" lon="-1.41766">
        <ele>10</ele>
        <time>2020-01-11T17:08:52Z</time>
      </trkpt>
      <trkpt lat="47.52916" lon="-1.41766">
        <ele>10</ele>
        <time>2020-01-11T17:08:53Z</time>
      </trkpt>
      <trkpt lat="47.52901" lon="-1.41762">
        <ele>10</ele>
        <time>2020-01-11T17:08:58Z</time>
      </trkpt>
      <trkpt lat="47.52898" lon="-1.41763">
        <ele>10</ele>
        <time>2020-01-11T17:08:59Z</time>
      </trkpt>
      <trkpt lat="47.52871" lon="-1.41769">
        <ele>11</ele>
        <time>2020-01-11T17:09:08Z</time>
      </trkpt>
      <trkpt lat="47.52868" lon="-1.41772">
        <ele>10</ele>
        <time>2020-01-11T17:09:10Z</time>
      </trkpt>
      <trkpt lat="47.52867" lon="-1.41783">
        <ele>10</ele>
        <time>2020-01-11T17:09:13Z</time>
      </trkpt>
      <trkpt lat="47.52867" lon="-1.418">
        <ele>10</ele>
        <time>2020-01-11T17:09:18Z</time>
      </trkpt>
      <trkpt lat="47.52861" lon="-1.41822">
        <ele>10</ele>
        <time>2020-01-11T17:09:23Z</time>
      </trkpt>
      <trkpt lat="47.52861" lon="-1.41841">
        <ele>9</ele>
        <time>2020-01-11T17:09:26Z</time>
      </trkpt>
      <trkpt lat="47.52862" lon="-1.41853">
        <ele>9</ele>
        <time>2020-01-11T17:09:28Z</time>
      </trkpt>
      <trkpt lat="47.52862" lon="-1.41873">
        <ele>8</ele>
        <time>2020-01-11T17:09:32Z</time>
      </trkpt>
      <trkpt lat="47.52864" lon="-1.4188">
        <ele>7</ele>
        <time>2020-01-11T17:09:34Z</time>
      </trkpt>
      <trkpt lat="47.52865" lon="-1.41885">
        <ele>7</ele>
        <time>2020-01-11T17:09:36Z</time>
      </trkpt>
      <trkpt lat="47.52864" lon="-1.41888">
        <ele>7</ele>
        <time>2020-01-11T17:09:37Z</time>
      </trkpt>
      <trkpt lat="47.52865" lon="-1.41893">
        <ele>6</ele>
        <time>2020-01-11T17:09:39Z</time>
      </trkpt>
      <trkpt lat="47.52866" lon="-1.41909">
        <ele>4</ele>
        <time>2020-01-11T17:09:46Z</time>
      </trkpt>
      <trkpt lat="47.52865" lon="-1.41916">
        <ele>4</ele>
        <time>2020-01-11T17:09:48Z</time>
      </trkpt>
      <trkpt lat="47.52864" lon="-1.41922">
        <ele>3</ele>
        <time>2020-01-11T17:09:50Z</time>
      </trkpt>
      <trkpt lat="47.5286" lon="-1.41932">
        <ele>2</ele>
        <time>2020-01-11T17:09:54Z</time>
      </trkpt>
      <trkpt lat="47.52852" lon="-1.41938">
        <ele>1</ele>
        <time>2020-01-11T17:09:59Z</time>
      </trkpt>
      <trkpt lat="47.52838" lon="-1.4195">
        <ele>2</ele>
        <time>2020-01-11T17:10:11Z</time>
      </trkpt>
      <trkpt lat="47.52837" lon="-1.4196">
        <ele>2</ele>
        <time>2020-01-11T17:10:14Z</time>
      </trkpt>
      <trkpt lat="47.52835" lon="-1.41983">
        <ele>1</ele>
        <time>2020-01-11T17:10:20Z</time>
      </trkpt>
      <trkpt lat="47.52835" lon="-1.41989">
        <ele>32.5</ele>
        <time>2020-01-11T17:10:22Z</time>
      </trkpt>
      <trkpt lat="47.52832" lon="-1.41995">
        <ele>32.1</ele>
        <time>2020-01-11T17:10:25Z</time>
      </trkpt>
      <trkpt lat="47.52827" lon="-1.41999">
        <ele>-1</ele>
        <time>2020-01-11T17:10:28Z</time>
      </trkpt>
      <trkpt lat="47.52822" lon="-1.42002">
        <ele>-1</ele>
        <time>2020-01-11T17:10:31Z</time>
      </trkpt>
      <trkpt lat="47.52813" lon="-1.41995">
        <ele>-1</ele>
        <time>2020-01-11T17:10:33Z</time>
      </trkpt>
      <trkpt lat="47.52793" lon="-1.4197">
        <ele>-1</ele>
        <time>2020-01-11T17:10:39Z</time>
      </trkpt>
      <trkpt lat="47.52774" lon="-1.41936">
        <ele>-1</ele>
        <time>2020-01-11T17:10:45Z</time>
      </trkpt>
      <trkpt lat="47.52757" lon="-1.41899">
        <ele>-1</ele>
        <time>2020-01-11T17:10:51Z</time>
      </trkpt>
      <trkpt lat="47.52739" lon="-1.41861">
        <ele>-1</ele>
        <time>2020-01-11T17:10:58Z</time>
      </trkpt>
      <trkpt lat="47.52726" lon="-1.41825">
        <ele>-1</ele>
        <time>2020-01-11T17:11:05Z</time>
      </trkpt>
      <trkpt lat="47.52712" lon="-1.41791">
        <ele>-1</ele>
        <time>2020-01-11T17:11:12Z</time>
      </trkpt>
      <trkpt lat="47.52703" lon="-1.41761">
        <ele>-1</ele>
        <time>2020-01-11T17:11:18Z</time>
      </trkpt>
      <trkpt lat="47.52694" lon="-1.41726">
        <ele>-1</ele>
        <time>2020-01-11T17:11:25Z</time>
      </trkpt>
      <trkpt lat="47.52688" lon="-1.41692">
        <ele>-1</ele>
        <time>2020-01-11T17:11:32Z</time>
      </trkpt>
      <trkpt lat="47.5269" lon="-1.41678">
        <ele>-1</ele>
        <time>2020-01-11T17:11:36Z</time>
      </trkpt>
      <trkpt lat="47.52691" lon="-1.41675">
        <ele>-1</ele>
        <time>2020-01-11T17:11:37Z</time>
      </trkpt>
      <trkpt lat="47.52705" lon="-1.41664">
        <ele>-1</ele>
        <time>2020-01-11T17:11:42Z</time>
      </trkpt>
      <trkpt lat="47.52721" lon="-1.41655">
        <ele>33.9</ele>
        <time>2020-01-11T17:11:48Z</time>
      </trkpt>
      <trkpt lat="47.5273" lon="-1.41649">
        <ele>1</ele>
        <time>2020-01-11T17:11:52Z</time>
      </trkpt>
      <trkpt lat="47.52733" lon="-1.41646">
        <ele>1</ele>
        <time>2020-01-11T17:11:54Z</time>
      </trkpt>
      <trkpt lat="47.52737" lon="-1.41642">
        <ele>2</ele>
        <time>2020-01-11T17:11:56Z</time>
      </trkpt>
      <trkpt lat="47.52748" lon="-1.41637">
        <ele>3</ele>
        <time>2020-01-11T17:12:01Z</time>
      </trkpt>
      <trkpt lat="47.52751" lon="-1.41636">
        <ele>3</ele>
        <time>2020-01-11T17:12:02Z</time>
      </trkpt>
      <trkpt lat="47.52765" lon="-1.4163">
        <ele>4</ele>
        <time>2020-01-11T17:12:08Z</time>
      </trkpt>
    </trkseg>
  </trk>
</gpx>